<?xml version="1.0" encoding="UTF-8" standalone="no" ?>
<gpx xmlns="http://www.topografix.com/GPX/1/1" xmlns:xsi="http://www.w3.org/2001/XMLSchema-instance" xsi:schemaLocation="http://www.topografix.com/GPX/1/1 http://www.topografix.com/GPX/1/1/gpx.xsd" version="1.1" creator="VisuGPX - https://www.visugpx.com">
  <metadata>
    <name>64 - VTT - Abos, Pardies, Noguères, Mourenx-Bourg, Abidos, Os-Marsillon, Lagor, Bésingrand - Boucle sur terrain plat </name>
    <desc><![CDATA[Reprise sur terrain plat (Sauf un montée à Lagor)]]></desc>
  </metadata>
  <wpt lat="43.35809" lon="-0.56461">
    <ele>128</ele>
    <name><![CDATA[Départ/Arrivée]]></name>
    <desc><![CDATA[13-MAI-13 21:58:09]]></desc>
    <cmt><![CDATA[13-MAI-13 21:58:09]]></cmt>
  </wpt>
  <trk>
    <name><![CDATA[ACTIVE LOG 042]]></name>
    <trkseg>
      <trkpt lat="43.35809" lon="-0.5646">
        <ele>127.992554</ele>
        <time>2013-05-14T08:58:00Z</time>
      </trkpt>
      <trkpt lat="43.35809" lon="-0.5646">
        <ele>127.992554</ele>
        <time>2013-05-14T08:58:01Z</time>
      </trkpt>
      <trkpt lat="43.35809" lon="-0.5646">
        <ele>128.473389</ele>
        <time>2013-05-14T08:58:03Z</time>
      </trkpt>
      <trkpt lat="43.35807" lon="-0.56461">
        <ele>127.511963</ele>
        <time>2013-05-14T08:58:30Z</time>
      </trkpt>
      <trkpt lat="43.35807" lon="-0.56461">
        <ele>128.954102</ele>
        <time>2013-05-14T08:58:33Z</time>
      </trkpt>
      <trkpt lat="43.35805" lon="-0.56456">
        <ele>127.031372</ele>
        <time>2013-05-14T08:59:13Z</time>
      </trkpt>
      <trkpt lat="43.35806" lon="-0.56456">
        <ele>127.511963</ele>
        <time>2013-05-14T08:59:14Z</time>
      </trkpt>
      <trkpt lat="43.3581" lon="-0.56459">
        <ele>129.434692</ele>
        <time>2013-05-14T08:59:17Z</time>
      </trkpt>
      <trkpt lat="43.35812" lon="-0.56476">
        <ele>129.434692</ele>
        <time>2013-05-14T08:59:23Z</time>
      </trkpt>
      <trkpt lat="43.35813" lon="-0.56501">
        <ele>128.473389</ele>
        <time>2013-05-14T08:59:30Z</time>
      </trkpt>
      <trkpt lat="43.35764" lon="-0.56524">
        <ele>128.473389</ele>
        <time>2013-05-14T08:59:44Z</time>
      </trkpt>
      <trkpt lat="43.35713" lon="-0.56551">
        <ele>128.954102</ele>
        <time>2013-05-14T08:59:57Z</time>
      </trkpt>
      <trkpt lat="43.35691" lon="-0.56602">
        <ele>128.954102</ele>
        <time>2013-05-14T09:00:08Z</time>
      </trkpt>
      <trkpt lat="43.35693" lon="-0.56608">
        <ele>128.473389</ele>
        <time>2013-05-14T09:00:09Z</time>
      </trkpt>
      <trkpt lat="43.35721" lon="-0.56693">
        <ele>129.434692</ele>
        <time>2013-05-14T09:00:24Z</time>
      </trkpt>
      <trkpt lat="43.35722" lon="-0.56699">
        <ele>129.434692</ele>
        <time>2013-05-14T09:00:25Z</time>
      </trkpt>
      <trkpt lat="43.35724" lon="-0.5673">
        <ele>129.434692</ele>
        <time>2013-05-14T09:00:30Z</time>
      </trkpt>
      <trkpt lat="43.357" lon="-0.56827">
        <ele>128.954102</ele>
        <time>2013-05-14T09:00:46Z</time>
      </trkpt>
      <trkpt lat="43.35698" lon="-0.5684">
        <ele>128.954102</ele>
        <time>2013-05-14T09:00:48Z</time>
      </trkpt>
      <trkpt lat="43.35692" lon="-0.56863">
        <ele>127.992554</ele>
        <time>2013-05-14T09:00:52Z</time>
      </trkpt>
      <trkpt lat="43.35675" lon="-0.5696">
        <ele>128.473389</ele>
        <time>2013-05-14T09:01:08Z</time>
      </trkpt>
      <trkpt lat="43.35666" lon="-0.57071">
        <ele>128.473389</ele>
        <time>2013-05-14T09:01:26Z</time>
      </trkpt>
      <trkpt lat="43.35666" lon="-0.57084">
        <ele>128.473389</ele>
        <time>2013-05-14T09:01:28Z</time>
      </trkpt>
      <trkpt lat="43.35687" lon="-0.57185">
        <ele>127.992554</ele>
        <time>2013-05-14T09:01:45Z</time>
      </trkpt>
      <trkpt lat="43.35722" lon="-0.5728">
        <ele>127.511963</ele>
        <time>2013-05-14T09:02:02Z</time>
      </trkpt>
      <trkpt lat="43.35738" lon="-0.57313">
        <ele>127.031372</ele>
        <time>2013-05-14T09:02:08Z</time>
      </trkpt>
      <trkpt lat="43.35753" lon="-0.57395">
        <ele>127.511963</ele>
        <time>2013-05-14T09:02:21Z</time>
      </trkpt>
      <trkpt lat="43.3579" lon="-0.57505">
        <ele>126.550659</ele>
        <time>2013-05-14T09:02:40Z</time>
      </trkpt>
      <trkpt lat="43.35804" lon="-0.57559">
        <ele>127.031372</ele>
        <time>2013-05-14T09:02:49Z</time>
      </trkpt>
      <trkpt lat="43.3581" lon="-0.57621">
        <ele>127.031372</ele>
        <time>2013-05-14T09:03:01Z</time>
      </trkpt>
      <trkpt lat="43.35793" lon="-0.57684">
        <ele>126.550659</ele>
        <time>2013-05-14T09:03:12Z</time>
      </trkpt>
      <trkpt lat="43.35738" lon="-0.57872">
        <ele>126.550659</ele>
        <time>2013-05-14T09:03:41Z</time>
      </trkpt>
      <trkpt lat="43.35682" lon="-0.58073">
        <ele>125.589355</ele>
        <time>2013-05-14T09:04:12Z</time>
      </trkpt>
      <trkpt lat="43.35657" lon="-0.58167">
        <ele>125.589355</ele>
        <time>2013-05-14T09:04:27Z</time>
      </trkpt>
      <trkpt lat="43.35662" lon="-0.58258">
        <ele>125.108765</ele>
        <time>2013-05-14T09:04:41Z</time>
      </trkpt>
      <trkpt lat="43.35661" lon="-0.58295">
        <ele>124.628052</ele>
        <time>2013-05-14T09:04:50Z</time>
      </trkpt>
      <trkpt lat="43.35632" lon="-0.58311">
        <ele>124.628052</ele>
        <time>2013-05-14T09:04:58Z</time>
      </trkpt>
      <trkpt lat="43.35623" lon="-0.58321">
        <ele>124.628052</ele>
        <time>2013-05-14T09:05:01Z</time>
      </trkpt>
      <trkpt lat="43.35611" lon="-0.58383">
        <ele>124.147339</ele>
        <time>2013-05-14T09:05:13Z</time>
      </trkpt>
      <trkpt lat="43.35606" lon="-0.58449">
        <ele>124.147339</ele>
        <time>2013-05-14T09:05:25Z</time>
      </trkpt>
      <trkpt lat="43.35581" lon="-0.58507">
        <ele>124.147339</ele>
        <time>2013-05-14T09:05:37Z</time>
      </trkpt>
      <trkpt lat="43.35565" lon="-0.58546">
        <ele>123.666748</ele>
        <time>2013-05-14T09:05:45Z</time>
      </trkpt>
      <trkpt lat="43.35563" lon="-0.58558">
        <ele>124.147339</ele>
        <time>2013-05-14T09:05:47Z</time>
      </trkpt>
      <trkpt lat="43.35562" lon="-0.58582">
        <ele>124.628052</ele>
        <time>2013-05-14T09:05:51Z</time>
      </trkpt>
      <trkpt lat="43.35571" lon="-0.58643">
        <ele>124.147339</ele>
        <time>2013-05-14T09:06:02Z</time>
      </trkpt>
      <trkpt lat="43.35574" lon="-0.58666">
        <ele>124.147339</ele>
        <time>2013-05-14T09:06:06Z</time>
      </trkpt>
      <trkpt lat="43.35578" lon="-0.58697">
        <ele>124.147339</ele>
        <time>2013-05-14T09:06:11Z</time>
      </trkpt>
      <trkpt lat="43.35579" lon="-0.58722">
        <ele>123.186157</ele>
        <time>2013-05-14T09:06:15Z</time>
      </trkpt>
      <trkpt lat="43.35581" lon="-0.58781">
        <ele>123.666748</ele>
        <time>2013-05-14T09:06:26Z</time>
      </trkpt>
      <trkpt lat="43.35588" lon="-0.58802">
        <ele>123.666748</ele>
        <time>2013-05-14T09:06:30Z</time>
      </trkpt>
      <trkpt lat="43.35597" lon="-0.5882">
        <ele>123.666748</ele>
        <time>2013-05-14T09:06:34Z</time>
      </trkpt>
      <trkpt lat="43.3561" lon="-0.58874">
        <ele>123.666748</ele>
        <time>2013-05-14T09:06:46Z</time>
      </trkpt>
      <trkpt lat="43.3565" lon="-0.58891">
        <ele>123.186157</ele>
        <time>2013-05-14T09:06:57Z</time>
      </trkpt>
      <trkpt lat="43.35668" lon="-0.58899">
        <ele>122.705444</ele>
        <time>2013-05-14T09:07:01Z</time>
      </trkpt>
      <trkpt lat="43.35706" lon="-0.58923">
        <ele>122.705444</ele>
        <time>2013-05-14T09:07:11Z</time>
      </trkpt>
      <trkpt lat="43.35745" lon="-0.58944">
        <ele>122.705444</ele>
        <time>2013-05-14T09:07:23Z</time>
      </trkpt>
      <trkpt lat="43.35754" lon="-0.58995">
        <ele>122.224731</ele>
        <time>2013-05-14T09:07:34Z</time>
      </trkpt>
      <trkpt lat="43.35755" lon="-0.59032">
        <ele>122.224731</ele>
        <time>2013-05-14T09:07:41Z</time>
      </trkpt>
      <trkpt lat="43.35762" lon="-0.59081">
        <ele>123.186157</ele>
        <time>2013-05-14T09:07:50Z</time>
      </trkpt>
      <trkpt lat="43.35765" lon="-0.59093">
        <ele>122.705444</ele>
        <time>2013-05-14T09:07:52Z</time>
      </trkpt>
      <trkpt lat="43.35769" lon="-0.59105">
        <ele>122.705444</ele>
        <time>2013-05-14T09:07:54Z</time>
      </trkpt>
      <trkpt lat="43.35803" lon="-0.59132">
        <ele>122.705444</ele>
        <time>2013-05-14T09:08:03Z</time>
      </trkpt>
      <trkpt lat="43.35809" lon="-0.59139">
        <ele>122.705444</ele>
        <time>2013-05-14T09:08:05Z</time>
      </trkpt>
      <trkpt lat="43.35811" lon="-0.59199">
        <ele>123.186157</ele>
        <time>2013-05-14T09:08:16Z</time>
      </trkpt>
      <trkpt lat="43.35812" lon="-0.59264">
        <ele>122.705444</ele>
        <time>2013-05-14T09:08:28Z</time>
      </trkpt>
      <trkpt lat="43.35809" lon="-0.59332">
        <ele>123.186157</ele>
        <time>2013-05-14T09:08:40Z</time>
      </trkpt>
      <trkpt lat="43.35816" lon="-0.59343">
        <ele>123.666748</ele>
        <time>2013-05-14T09:08:43Z</time>
      </trkpt>
      <trkpt lat="43.35835" lon="-0.59354">
        <ele>123.186157</ele>
        <time>2013-05-14T09:08:48Z</time>
      </trkpt>
      <trkpt lat="43.35873" lon="-0.59386">
        <ele>122.224731</ele>
        <time>2013-05-14T09:08:59Z</time>
      </trkpt>
      <trkpt lat="43.35892" lon="-0.59429">
        <ele>123.186157</ele>
        <time>2013-05-14T09:09:09Z</time>
      </trkpt>
      <trkpt lat="43.35898" lon="-0.59436">
        <ele>123.186157</ele>
        <time>2013-05-14T09:09:11Z</time>
      </trkpt>
      <trkpt lat="43.3591" lon="-0.59446">
        <ele>122.705444</ele>
        <time>2013-05-14T09:09:14Z</time>
      </trkpt>
      <trkpt lat="43.35923" lon="-0.59459">
        <ele>122.224731</ele>
        <time>2013-05-14T09:09:18Z</time>
      </trkpt>
      <trkpt lat="43.35963" lon="-0.595">
        <ele>122.705444</ele>
        <time>2013-05-14T09:09:30Z</time>
      </trkpt>
      <trkpt lat="43.35995" lon="-0.59517">
        <ele>122.705444</ele>
        <time>2013-05-14T09:09:39Z</time>
      </trkpt>
      <trkpt lat="43.36001" lon="-0.59517">
        <ele>122.705444</ele>
        <time>2013-05-14T09:09:41Z</time>
      </trkpt>
      <trkpt lat="43.3601" lon="-0.59542">
        <ele>123.666748</ele>
        <time>2013-05-14T09:09:47Z</time>
      </trkpt>
      <trkpt lat="43.36011" lon="-0.59568">
        <ele>122.705444</ele>
        <time>2013-05-14T09:09:51Z</time>
      </trkpt>
      <trkpt lat="43.35998" lon="-0.59631">
        <ele>121.744141</ele>
        <time>2013-05-14T09:10:00Z</time>
      </trkpt>
      <trkpt lat="43.35965" lon="-0.5968">
        <ele>121.744141</ele>
        <time>2013-05-14T09:10:10Z</time>
      </trkpt>
      <trkpt lat="43.35957" lon="-0.59696">
        <ele>122.224731</ele>
        <time>2013-05-14T09:10:13Z</time>
      </trkpt>
      <trkpt lat="43.35942" lon="-0.59738">
        <ele>122.224731</ele>
        <time>2013-05-14T09:10:20Z</time>
      </trkpt>
      <trkpt lat="43.35945" lon="-0.5977">
        <ele>122.224731</ele>
        <time>2013-05-14T09:10:25Z</time>
      </trkpt>
      <trkpt lat="43.36056" lon="-0.59919">
        <ele>121.744141</ele>
        <time>2013-05-14T09:10:54Z</time>
      </trkpt>
      <trkpt lat="43.36133" lon="-0.60022">
        <ele>121.26355</ele>
        <time>2013-05-14T09:11:15Z</time>
      </trkpt>
      <trkpt lat="43.3619" lon="-0.6008">
        <ele>120.302124</ele>
        <time>2013-05-14T09:11:29Z</time>
      </trkpt>
      <trkpt lat="43.36209" lon="-0.60089">
        <ele>120.782837</ele>
        <time>2013-05-14T09:11:33Z</time>
      </trkpt>
      <trkpt lat="43.36244" lon="-0.6009">
        <ele>120.302124</ele>
        <time>2013-05-14T09:11:40Z</time>
      </trkpt>
      <trkpt lat="43.36313" lon="-0.60115">
        <ele>119.821411</ele>
        <time>2013-05-14T09:11:54Z</time>
      </trkpt>
      <trkpt lat="43.36339" lon="-0.60113">
        <ele>120.302124</ele>
        <time>2013-05-14T09:11:59Z</time>
      </trkpt>
      <trkpt lat="43.36373" lon="-0.60139">
        <ele>120.782837</ele>
        <time>2013-05-14T09:12:07Z</time>
      </trkpt>
      <trkpt lat="43.36431" lon="-0.60245">
        <ele>119.821411</ele>
        <time>2013-05-14T09:12:26Z</time>
      </trkpt>
      <trkpt lat="43.36494" lon="-0.60307">
        <ele>119.821411</ele>
        <time>2013-05-14T09:12:41Z</time>
      </trkpt>
      <trkpt lat="43.36572" lon="-0.60384">
        <ele>119.34082</ele>
        <time>2013-05-14T09:13:00Z</time>
      </trkpt>
      <trkpt lat="43.36583" lon="-0.60395">
        <ele>118.860107</ele>
        <time>2013-05-14T09:13:03Z</time>
      </trkpt>
      <trkpt lat="43.36599" lon="-0.60413">
        <ele>117.898804</ele>
        <time>2013-05-14T09:13:08Z</time>
      </trkpt>
      <trkpt lat="43.36625" lon="-0.6038">
        <ele>119.34082</ele>
        <time>2013-05-14T09:13:17Z</time>
      </trkpt>
      <trkpt lat="43.36627" lon="-0.60375">
        <ele>119.34082</ele>
        <time>2013-05-14T09:13:18Z</time>
      </trkpt>
      <trkpt lat="43.36664" lon="-0.60264">
        <ele>119.34082</ele>
        <time>2013-05-14T09:13:36Z</time>
      </trkpt>
      <trkpt lat="43.36671" lon="-0.60242">
        <ele>118.379395</ele>
        <time>2013-05-14T09:13:40Z</time>
      </trkpt>
      <trkpt lat="43.36685" lon="-0.60244">
        <ele>118.860107</ele>
        <time>2013-05-14T09:13:44Z</time>
      </trkpt>
      <trkpt lat="43.3674" lon="-0.60292">
        <ele>117.418213</ele>
        <time>2013-05-14T09:13:57Z</time>
      </trkpt>
      <trkpt lat="43.36795" lon="-0.60353">
        <ele>117.898804</ele>
        <time>2013-05-14T09:14:12Z</time>
      </trkpt>
      <trkpt lat="43.36852" lon="-0.60402">
        <ele>116.9375</ele>
        <time>2013-05-14T09:14:28Z</time>
      </trkpt>
      <trkpt lat="43.3686" lon="-0.6043">
        <ele>117.418213</ele>
        <time>2013-05-14T09:14:40Z</time>
      </trkpt>
      <trkpt lat="43.36872" lon="-0.60457">
        <ele>116.9375</ele>
        <time>2013-05-14T09:14:51Z</time>
      </trkpt>
      <trkpt lat="43.36899" lon="-0.60477">
        <ele>116.456787</ele>
        <time>2013-05-14T09:15:02Z</time>
      </trkpt>
      <trkpt lat="43.36925" lon="-0.60514">
        <ele>116.9375</ele>
        <time>2013-05-14T09:15:13Z</time>
      </trkpt>
      <trkpt lat="43.36929" lon="-0.60525">
        <ele>116.456787</ele>
        <time>2013-05-14T09:15:20Z</time>
      </trkpt>
      <trkpt lat="43.36949" lon="-0.60552">
        <ele>117.418213</ele>
        <time>2013-05-14T09:15:31Z</time>
      </trkpt>
      <trkpt lat="43.3697" lon="-0.60596">
        <ele>115.976196</ele>
        <time>2013-05-14T09:15:42Z</time>
      </trkpt>
      <trkpt lat="43.36967" lon="-0.60631">
        <ele>116.456787</ele>
        <time>2013-05-14T09:15:52Z</time>
      </trkpt>
      <trkpt lat="43.36946" lon="-0.60676">
        <ele>116.456787</ele>
        <time>2013-05-14T09:16:06Z</time>
      </trkpt>
      <trkpt lat="43.36934" lon="-0.60701">
        <ele>116.9375</ele>
        <time>2013-05-14T09:16:14Z</time>
      </trkpt>
      <trkpt lat="43.36938" lon="-0.60714">
        <ele>116.456787</ele>
        <time>2013-05-14T09:16:25Z</time>
      </trkpt>
      <trkpt lat="43.36939" lon="-0.60717">
        <ele>116.456787</ele>
        <time>2013-05-14T09:16:28Z</time>
      </trkpt>
      <trkpt lat="43.3695" lon="-0.60732">
        <ele>117.418213</ele>
        <time>2013-05-14T09:16:36Z</time>
      </trkpt>
      <trkpt lat="43.36975" lon="-0.60765">
        <ele>116.9375</ele>
        <time>2013-05-14T09:16:48Z</time>
      </trkpt>
      <trkpt lat="43.36982" lon="-0.60773">
        <ele>115.976196</ele>
        <time>2013-05-14T09:16:51Z</time>
      </trkpt>
      <trkpt lat="43.36992" lon="-0.6078">
        <ele>116.456787</ele>
        <time>2013-05-14T09:16:57Z</time>
      </trkpt>
      <trkpt lat="43.37002" lon="-0.60797">
        <ele>115.976196</ele>
        <time>2013-05-14T09:17:08Z</time>
      </trkpt>
      <trkpt lat="43.37011" lon="-0.60806">
        <ele>115.976196</ele>
        <time>2013-05-14T09:17:20Z</time>
      </trkpt>
      <trkpt lat="43.37018" lon="-0.60814">
        <ele>115.976196</ele>
        <time>2013-05-14T09:17:37Z</time>
      </trkpt>
      <trkpt lat="43.37024" lon="-0.60819">
        <ele>116.456787</ele>
        <time>2013-05-14T09:17:43Z</time>
      </trkpt>
      <trkpt lat="43.37053" lon="-0.60847">
        <ele>115.976196</ele>
        <time>2013-05-14T09:17:56Z</time>
      </trkpt>
      <trkpt lat="43.37087" lon="-0.60881">
        <ele>115.495605</ele>
        <time>2013-05-14T09:18:09Z</time>
      </trkpt>
      <trkpt lat="43.37126" lon="-0.60921">
        <ele>115.014893</ele>
        <time>2013-05-14T09:18:23Z</time>
      </trkpt>
      <trkpt lat="43.37166" lon="-0.60958">
        <ele>114.53418</ele>
        <time>2013-05-14T09:18:37Z</time>
      </trkpt>
      <trkpt lat="43.37207" lon="-0.60995">
        <ele>115.014893</ele>
        <time>2013-05-14T09:18:49Z</time>
      </trkpt>
      <trkpt lat="43.3722" lon="-0.61004">
        <ele>115.014893</ele>
        <time>2013-05-14T09:18:52Z</time>
      </trkpt>
      <trkpt lat="43.37251" lon="-0.61039">
        <ele>115.014893</ele>
        <time>2013-05-14T09:19:02Z</time>
      </trkpt>
      <trkpt lat="43.37269" lon="-0.61041">
        <ele>114.53418</ele>
        <time>2013-05-14T09:19:08Z</time>
      </trkpt>
      <trkpt lat="43.37314" lon="-0.61058">
        <ele>115.014893</ele>
        <time>2013-05-14T09:19:25Z</time>
      </trkpt>
      <trkpt lat="43.37327" lon="-0.61085">
        <ele>115.014893</ele>
        <time>2013-05-14T09:19:31Z</time>
      </trkpt>
      <trkpt lat="43.37349" lon="-0.61103">
        <ele>115.014893</ele>
        <time>2013-05-14T09:19:37Z</time>
      </trkpt>
      <trkpt lat="43.37375" lon="-0.61114">
        <ele>114.53418</ele>
        <time>2013-05-14T09:19:43Z</time>
      </trkpt>
      <trkpt lat="43.37431" lon="-0.61127">
        <ele>114.53418</ele>
        <time>2013-05-14T09:19:55Z</time>
      </trkpt>
      <trkpt lat="43.37463" lon="-0.6114">
        <ele>114.053589</ele>
        <time>2013-05-14T09:20:02Z</time>
      </trkpt>
      <trkpt lat="43.37486" lon="-0.61143">
        <ele>113.092285</ele>
        <time>2013-05-14T09:20:07Z</time>
      </trkpt>
      <trkpt lat="43.37504" lon="-0.61137">
        <ele>113.572998</ele>
        <time>2013-05-14T09:20:11Z</time>
      </trkpt>
      <trkpt lat="43.37523" lon="-0.61127">
        <ele>113.572998</ele>
        <time>2013-05-14T09:20:15Z</time>
      </trkpt>
      <trkpt lat="43.37554" lon="-0.61113">
        <ele>115.495605</ele>
        <time>2013-05-14T09:20:23Z</time>
      </trkpt>
      <trkpt lat="43.37558" lon="-0.61073">
        <ele>115.495605</ele>
        <time>2013-05-14T09:20:31Z</time>
      </trkpt>
      <trkpt lat="43.37574" lon="-0.61054">
        <ele>115.014893</ele>
        <time>2013-05-14T09:20:36Z</time>
      </trkpt>
      <trkpt lat="43.37587" lon="-0.61048">
        <ele>115.014893</ele>
        <time>2013-05-14T09:20:39Z</time>
      </trkpt>
      <trkpt lat="43.37622" lon="-0.61048">
        <ele>113.092285</ele>
        <time>2013-05-14T09:20:46Z</time>
      </trkpt>
      <trkpt lat="43.37646" lon="-0.61027">
        <ele>113.092285</ele>
        <time>2013-05-14T09:20:52Z</time>
      </trkpt>
      <trkpt lat="43.37652" lon="-0.61009">
        <ele>113.092285</ele>
        <time>2013-05-14T09:20:55Z</time>
      </trkpt>
      <trkpt lat="43.3767" lon="-0.60993">
        <ele>113.092285</ele>
        <time>2013-05-14T09:21:00Z</time>
      </trkpt>
      <trkpt lat="43.37747" lon="-0.6103">
        <ele>113.572998</ele>
        <time>2013-05-14T09:21:16Z</time>
      </trkpt>
      <trkpt lat="43.37804" lon="-0.61038">
        <ele>112.611572</ele>
        <time>2013-05-14T09:21:30Z</time>
      </trkpt>
      <trkpt lat="43.37826" lon="-0.6106">
        <ele>111.650269</ele>
        <time>2013-05-14T09:21:38Z</time>
      </trkpt>
      <trkpt lat="43.37831" lon="-0.6107">
        <ele>112.611572</ele>
        <time>2013-05-14T09:21:40Z</time>
      </trkpt>
      <trkpt lat="43.3788" lon="-0.61147">
        <ele>112.611572</ele>
        <time>2013-05-14T09:21:55Z</time>
      </trkpt>
      <trkpt lat="43.3789" lon="-0.6116">
        <ele>112.130981</ele>
        <time>2013-05-14T09:21:58Z</time>
      </trkpt>
      <trkpt lat="43.37889" lon="-0.61189">
        <ele>112.611572</ele>
        <time>2013-05-14T09:22:03Z</time>
      </trkpt>
      <trkpt lat="43.37884" lon="-0.6123">
        <ele>113.572998</ele>
        <time>2013-05-14T09:22:10Z</time>
      </trkpt>
      <trkpt lat="43.37885" lon="-0.61265">
        <ele>114.053589</ele>
        <time>2013-05-14T09:22:16Z</time>
      </trkpt>
      <trkpt lat="43.37889" lon="-0.6129">
        <ele>113.092285</ele>
        <time>2013-05-14T09:22:20Z</time>
      </trkpt>
      <trkpt lat="43.37885" lon="-0.61366">
        <ele>112.130981</ele>
        <time>2013-05-14T09:22:31Z</time>
      </trkpt>
      <trkpt lat="43.3788" lon="-0.61466">
        <ele>112.130981</ele>
        <time>2013-05-14T09:22:48Z</time>
      </trkpt>
      <trkpt lat="43.37876" lon="-0.61601">
        <ele>113.092285</ele>
        <time>2013-05-14T09:23:11Z</time>
      </trkpt>
      <trkpt lat="43.37872" lon="-0.61732">
        <ele>113.092285</ele>
        <time>2013-05-14T09:23:33Z</time>
      </trkpt>
      <trkpt lat="43.37871" lon="-0.61791">
        <ele>113.092285</ele>
        <time>2013-05-14T09:23:43Z</time>
      </trkpt>
      <trkpt lat="43.37883" lon="-0.61801">
        <ele>112.130981</ele>
        <time>2013-05-14T09:23:47Z</time>
      </trkpt>
      <trkpt lat="43.37909" lon="-0.61784">
        <ele>111.650269</ele>
        <time>2013-05-14T09:23:53Z</time>
      </trkpt>
      <trkpt lat="43.37937" lon="-0.61785">
        <ele>111.169556</ele>
        <time>2013-05-14T09:24:00Z</time>
      </trkpt>
      <trkpt lat="43.37952" lon="-0.61824">
        <ele>111.169556</ele>
        <time>2013-05-14T09:24:07Z</time>
      </trkpt>
      <trkpt lat="43.37979" lon="-0.61852">
        <ele>111.169556</ele>
        <time>2013-05-14T09:24:19Z</time>
      </trkpt>
      <trkpt lat="43.37989" lon="-0.61861">
        <ele>112.130981</ele>
        <time>2013-05-14T09:24:44Z</time>
      </trkpt>
      <trkpt lat="43.37999" lon="-0.61871">
        <ele>112.130981</ele>
        <time>2013-05-14T09:24:47Z</time>
      </trkpt>
      <trkpt lat="43.38074" lon="-0.61934">
        <ele>111.169556</ele>
        <time>2013-05-14T09:25:06Z</time>
      </trkpt>
      <trkpt lat="43.38092" lon="-0.61946">
        <ele>111.650269</ele>
        <time>2013-05-14T09:25:10Z</time>
      </trkpt>
      <trkpt lat="43.38112" lon="-0.61949">
        <ele>111.169556</ele>
        <time>2013-05-14T09:25:14Z</time>
      </trkpt>
      <trkpt lat="43.38217" lon="-0.61918">
        <ele>111.650269</ele>
        <time>2013-05-14T09:25:35Z</time>
      </trkpt>
      <trkpt lat="43.38243" lon="-0.61912">
        <ele>111.169556</ele>
        <time>2013-05-14T09:25:40Z</time>
      </trkpt>
      <trkpt lat="43.38286" lon="-0.61889">
        <ele>110.688843</ele>
        <time>2013-05-14T09:25:49Z</time>
      </trkpt>
      <trkpt lat="43.38379" lon="-0.61877">
        <ele>110.208252</ele>
        <time>2013-05-14T09:26:07Z</time>
      </trkpt>
      <trkpt lat="43.38444" lon="-0.61876">
        <ele>111.169556</ele>
        <time>2013-05-14T09:26:20Z</time>
      </trkpt>
      <trkpt lat="43.38489" lon="-0.61865">
        <ele>111.169556</ele>
        <time>2013-05-14T09:26:29Z</time>
      </trkpt>
      <trkpt lat="43.3851" lon="-0.61846">
        <ele>111.169556</ele>
        <time>2013-05-14T09:26:34Z</time>
      </trkpt>
      <trkpt lat="43.38533" lon="-0.61794">
        <ele>110.688843</ele>
        <time>2013-05-14T09:26:42Z</time>
      </trkpt>
      <trkpt lat="43.38567" lon="-0.61788">
        <ele>109.246948</ele>
        <time>2013-05-14T09:26:49Z</time>
      </trkpt>
      <trkpt lat="43.38671" lon="-0.6185">
        <ele>108.766235</ele>
        <time>2013-05-14T09:27:11Z</time>
      </trkpt>
      <trkpt lat="43.3869" lon="-0.61845">
        <ele>109.246948</ele>
        <time>2013-05-14T09:27:15Z</time>
      </trkpt>
      <trkpt lat="43.38719" lon="-0.61845">
        <ele>109.727661</ele>
        <time>2013-05-14T09:27:21Z</time>
      </trkpt>
      <trkpt lat="43.38732" lon="-0.61851">
        <ele>108.285645</ele>
        <time>2013-05-14T09:27:24Z</time>
      </trkpt>
      <trkpt lat="43.38759" lon="-0.61857">
        <ele>107.805054</ele>
        <time>2013-05-14T09:27:32Z</time>
      </trkpt>
      <trkpt lat="43.38758" lon="-0.61871">
        <ele>107.324341</ele>
        <time>2013-05-14T09:27:37Z</time>
      </trkpt>
      <trkpt lat="43.38741" lon="-0.61902">
        <ele>107.805054</ele>
        <time>2013-05-14T09:27:44Z</time>
      </trkpt>
      <trkpt lat="43.38723" lon="-0.62004">
        <ele>109.727661</ele>
        <time>2013-05-14T09:28:01Z</time>
      </trkpt>
      <trkpt lat="43.38719" lon="-0.62034">
        <ele>110.208252</ele>
        <time>2013-05-14T09:28:06Z</time>
      </trkpt>
      <trkpt lat="43.38723" lon="-0.6208">
        <ele>109.727661</ele>
        <time>2013-05-14T09:28:13Z</time>
      </trkpt>
      <trkpt lat="43.38718" lon="-0.62135">
        <ele>109.246948</ele>
        <time>2013-05-14T09:28:21Z</time>
      </trkpt>
      <trkpt lat="43.38727" lon="-0.62205">
        <ele>107.324341</ele>
        <time>2013-05-14T09:28:31Z</time>
      </trkpt>
      <trkpt lat="43.38742" lon="-0.6231">
        <ele>107.324341</ele>
        <time>2013-05-14T09:28:46Z</time>
      </trkpt>
      <trkpt lat="43.38761" lon="-0.62378">
        <ele>106.363037</ele>
        <time>2013-05-14T09:28:57Z</time>
      </trkpt>
      <trkpt lat="43.3878" lon="-0.62434">
        <ele>107.324341</ele>
        <time>2013-05-14T09:29:07Z</time>
      </trkpt>
      <trkpt lat="43.38787" lon="-0.62476">
        <ele>107.324341</ele>
        <time>2013-05-14T09:29:14Z</time>
      </trkpt>
      <trkpt lat="43.38824" lon="-0.62553">
        <ele>106.843628</ele>
        <time>2013-05-14T09:29:29Z</time>
      </trkpt>
      <trkpt lat="43.38826" lon="-0.62558">
        <ele>107.324341</ele>
        <time>2013-05-14T09:29:30Z</time>
      </trkpt>
      <trkpt lat="43.38836" lon="-0.62578">
        <ele>107.324341</ele>
        <time>2013-05-14T09:29:34Z</time>
      </trkpt>
      <trkpt lat="43.38863" lon="-0.62619">
        <ele>107.324341</ele>
        <time>2013-05-14T09:29:43Z</time>
      </trkpt>
      <trkpt lat="43.38891" lon="-0.62659">
        <ele>107.324341</ele>
        <time>2013-05-14T09:29:52Z</time>
      </trkpt>
      <trkpt lat="43.38917" lon="-0.62684">
        <ele>107.805054</ele>
        <time>2013-05-14T09:29:59Z</time>
      </trkpt>
      <trkpt lat="43.38963" lon="-0.62715">
        <ele>106.843628</ele>
        <time>2013-05-14T09:30:10Z</time>
      </trkpt>
      <trkpt lat="43.38992" lon="-0.62701">
        <ele>106.843628</ele>
        <time>2013-05-14T09:30:18Z</time>
      </trkpt>
      <trkpt lat="43.39017" lon="-0.62693">
        <ele>107.324341</ele>
        <time>2013-05-14T09:30:26Z</time>
      </trkpt>
      <trkpt lat="43.3902" lon="-0.62696">
        <ele>106.843628</ele>
        <time>2013-05-14T09:30:27Z</time>
      </trkpt>
      <trkpt lat="43.39035" lon="-0.62717">
        <ele>106.843628</ele>
        <time>2013-05-14T09:30:32Z</time>
      </trkpt>
      <trkpt lat="43.39058" lon="-0.62767">
        <ele>105.882446</ele>
        <time>2013-05-14T09:30:41Z</time>
      </trkpt>
      <trkpt lat="43.39076" lon="-0.6279">
        <ele>106.363037</ele>
        <time>2013-05-14T09:30:46Z</time>
      </trkpt>
      <trkpt lat="43.39084" lon="-0.62799">
        <ele>106.843628</ele>
        <time>2013-05-14T09:30:48Z</time>
      </trkpt>
      <trkpt lat="43.39092" lon="-0.62805">
        <ele>106.363037</ele>
        <time>2013-05-14T09:30:50Z</time>
      </trkpt>
      <trkpt lat="43.39104" lon="-0.62816">
        <ele>106.363037</ele>
        <time>2013-05-14T09:30:53Z</time>
      </trkpt>
      <trkpt lat="43.39115" lon="-0.62826">
        <ele>106.363037</ele>
        <time>2013-05-14T09:30:56Z</time>
      </trkpt>
      <trkpt lat="43.39128" lon="-0.62829">
        <ele>105.882446</ele>
        <time>2013-05-14T09:30:59Z</time>
      </trkpt>
      <trkpt lat="43.39161" lon="-0.6286">
        <ele>105.882446</ele>
        <time>2013-05-14T09:31:08Z</time>
      </trkpt>
      <trkpt lat="43.39237" lon="-0.62954">
        <ele>105.882446</ele>
        <time>2013-05-14T09:31:29Z</time>
      </trkpt>
      <trkpt lat="43.39314" lon="-0.63004">
        <ele>105.401733</ele>
        <time>2013-05-14T09:31:47Z</time>
      </trkpt>
      <trkpt lat="43.39396" lon="-0.63054">
        <ele>104.921021</ele>
        <time>2013-05-14T09:32:06Z</time>
      </trkpt>
      <trkpt lat="43.39402" lon="-0.63059">
        <ele>104.44043</ele>
        <time>2013-05-14T09:32:08Z</time>
      </trkpt>
      <trkpt lat="43.39396" lon="-0.6307">
        <ele>104.921021</ele>
        <time>2013-05-14T09:32:14Z</time>
      </trkpt>
      <trkpt lat="43.39378" lon="-0.63074">
        <ele>104.921021</ele>
        <time>2013-05-14T09:32:19Z</time>
      </trkpt>
      <trkpt lat="43.39361" lon="-0.63094">
        <ele>104.44043</ele>
        <time>2013-05-14T09:32:24Z</time>
      </trkpt>
      <trkpt lat="43.39354" lon="-0.63111">
        <ele>104.44043</ele>
        <time>2013-05-14T09:32:27Z</time>
      </trkpt>
      <trkpt lat="43.39286" lon="-0.63219">
        <ele>104.921021</ele>
        <time>2013-05-14T09:32:49Z</time>
      </trkpt>
      <trkpt lat="43.39221" lon="-0.63305">
        <ele>104.921021</ele>
        <time>2013-05-14T09:33:07Z</time>
      </trkpt>
      <trkpt lat="43.39135" lon="-0.634">
        <ele>105.882446</ele>
        <time>2013-05-14T09:33:29Z</time>
      </trkpt>
      <trkpt lat="43.39054" lon="-0.63474">
        <ele>106.363037</ele>
        <time>2013-05-14T09:33:49Z</time>
      </trkpt>
      <trkpt lat="43.3902" lon="-0.63508">
        <ele>106.363037</ele>
        <time>2013-05-14T09:33:58Z</time>
      </trkpt>
      <trkpt lat="43.3902" lon="-0.63536">
        <ele>106.843628</ele>
        <time>2013-05-14T09:34:03Z</time>
      </trkpt>
      <trkpt lat="43.39029" lon="-0.63553">
        <ele>106.843628</ele>
        <time>2013-05-14T09:34:06Z</time>
      </trkpt>
      <trkpt lat="43.39028" lon="-0.63588">
        <ele>106.363037</ele>
        <time>2013-05-14T09:34:12Z</time>
      </trkpt>
      <trkpt lat="43.38994" lon="-0.63623">
        <ele>106.843628</ele>
        <time>2013-05-14T09:34:21Z</time>
      </trkpt>
      <trkpt lat="43.38963" lon="-0.63621">
        <ele>106.843628</ele>
        <time>2013-05-14T09:34:28Z</time>
      </trkpt>
      <trkpt lat="43.38951" lon="-0.63609">
        <ele>107.324341</ele>
        <time>2013-05-14T09:34:31Z</time>
      </trkpt>
      <trkpt lat="43.38921" lon="-0.63615">
        <ele>107.324341</ele>
        <time>2013-05-14T09:34:38Z</time>
      </trkpt>
      <trkpt lat="43.38888" lon="-0.63654">
        <ele>108.285645</ele>
        <time>2013-05-14T09:34:47Z</time>
      </trkpt>
      <trkpt lat="43.38884" lon="-0.63689">
        <ele>106.843628</ele>
        <time>2013-05-14T09:34:53Z</time>
      </trkpt>
      <trkpt lat="43.38906" lon="-0.63742">
        <ele>107.805054</ele>
        <time>2013-05-14T09:35:02Z</time>
      </trkpt>
      <trkpt lat="43.38899" lon="-0.63777">
        <ele>107.324341</ele>
        <time>2013-05-14T09:35:08Z</time>
      </trkpt>
      <trkpt lat="43.38861" lon="-0.63808">
        <ele>107.324341</ele>
        <time>2013-05-14T09:35:17Z</time>
      </trkpt>
      <trkpt lat="43.38844" lon="-0.63844">
        <ele>106.843628</ele>
        <time>2013-05-14T09:35:23Z</time>
      </trkpt>
      <trkpt lat="43.38839" lon="-0.63907">
        <ele>106.843628</ele>
        <time>2013-05-14T09:35:32Z</time>
      </trkpt>
      <trkpt lat="43.38829" lon="-0.63936">
        <ele>106.363037</ele>
        <time>2013-05-14T09:35:37Z</time>
      </trkpt>
      <trkpt lat="43.38786" lon="-0.63982">
        <ele>106.843628</ele>
        <time>2013-05-14T09:35:48Z</time>
      </trkpt>
      <trkpt lat="43.38762" lon="-0.63985">
        <ele>107.324341</ele>
        <time>2013-05-14T09:35:53Z</time>
      </trkpt>
      <trkpt lat="43.38733" lon="-0.63984">
        <ele>106.363037</ele>
        <time>2013-05-14T09:35:59Z</time>
      </trkpt>
      <trkpt lat="43.38707" lon="-0.64004">
        <ele>106.363037</ele>
        <time>2013-05-14T09:36:05Z</time>
      </trkpt>
      <trkpt lat="43.38664" lon="-0.64088">
        <ele>106.843628</ele>
        <time>2013-05-14T09:36:20Z</time>
      </trkpt>
      <trkpt lat="43.38628" lon="-0.64173">
        <ele>108.766235</ele>
        <time>2013-05-14T09:36:37Z</time>
      </trkpt>
      <trkpt lat="43.38627" lon="-0.6419">
        <ele>110.208252</ele>
        <time>2013-05-14T09:36:43Z</time>
      </trkpt>
      <trkpt lat="43.38625" lon="-0.64229">
        <ele>113.092285</ele>
        <time>2013-05-14T09:36:59Z</time>
      </trkpt>
      <trkpt lat="43.38618" lon="-0.64251">
        <ele>116.456787</ele>
        <time>2013-05-14T09:37:09Z</time>
      </trkpt>
      <trkpt lat="43.38609" lon="-0.64275">
        <ele>119.34082</ele>
        <time>2013-05-14T09:37:21Z</time>
      </trkpt>
      <trkpt lat="43.38596" lon="-0.643">
        <ele>122.224731</ele>
        <time>2013-05-14T09:37:37Z</time>
      </trkpt>
      <trkpt lat="43.38589" lon="-0.64321">
        <ele>125.108765</ele>
        <time>2013-05-14T09:37:49Z</time>
      </trkpt>
      <trkpt lat="43.38584" lon="-0.64337">
        <ele>128.473389</ele>
        <time>2013-05-14T09:37:58Z</time>
      </trkpt>
      <trkpt lat="43.38579" lon="-0.64359">
        <ele>132.318604</ele>
        <time>2013-05-14T09:38:11Z</time>
      </trkpt>
      <trkpt lat="43.38576" lon="-0.64374">
        <ele>136.16394</ele>
        <time>2013-05-14T09:38:20Z</time>
      </trkpt>
      <trkpt lat="43.38575" lon="-0.64376">
        <ele>136.16394</ele>
        <time>2013-05-14T09:38:21Z</time>
      </trkpt>
      <trkpt lat="43.38574" lon="-0.64377">
        <ele>136.16394</ele>
        <time>2013-05-14T09:38:22Z</time>
      </trkpt>
      <trkpt lat="43.38572" lon="-0.6439">
        <ele>137.125244</ele>
        <time>2013-05-14T09:38:30Z</time>
      </trkpt>
      <trkpt lat="43.38569" lon="-0.64412">
        <ele>140.489868</ele>
        <time>2013-05-14T09:38:44Z</time>
      </trkpt>
      <trkpt lat="43.38569" lon="-0.64414">
        <ele>140.489868</ele>
        <time>2013-05-14T09:38:45Z</time>
      </trkpt>
      <trkpt lat="43.38569" lon="-0.64446">
        <ele>143.373657</ele>
        <time>2013-05-14T09:39:04Z</time>
      </trkpt>
      <trkpt lat="43.38577" lon="-0.64477">
        <ele>145.7771</ele>
        <time>2013-05-14T09:39:20Z</time>
      </trkpt>
      <trkpt lat="43.3858" lon="-0.6451">
        <ele>148.18042</ele>
        <time>2013-05-14T09:39:37Z</time>
      </trkpt>
      <trkpt lat="43.38583" lon="-0.64539">
        <ele>151.064209</ele>
        <time>2013-05-14T09:39:53Z</time>
      </trkpt>
      <trkpt lat="43.38583" lon="-0.64541">
        <ele>151.064209</ele>
        <time>2013-05-14T09:39:54Z</time>
      </trkpt>
      <trkpt lat="43.38584" lon="-0.64567">
        <ele>153.467651</ele>
        <time>2013-05-14T09:40:08Z</time>
      </trkpt>
      <trkpt lat="43.38585" lon="-0.64592">
        <ele>157.793579</ele>
        <time>2013-05-14T09:40:21Z</time>
      </trkpt>
      <trkpt lat="43.38581" lon="-0.64604">
        <ele>159.235474</ele>
        <time>2013-05-14T09:40:28Z</time>
      </trkpt>
      <trkpt lat="43.38573" lon="-0.64594">
        <ele>159.716187</ele>
        <time>2013-05-14T09:40:37Z</time>
      </trkpt>
      <trkpt lat="43.38555" lon="-0.64538">
        <ele>155.870972</ele>
        <time>2013-05-14T09:40:46Z</time>
      </trkpt>
      <trkpt lat="43.38548" lon="-0.64523">
        <ele>155.390259</ele>
        <time>2013-05-14T09:40:48Z</time>
      </trkpt>
      <trkpt lat="43.38531" lon="-0.64481">
        <ele>152.025757</ele>
        <time>2013-05-14T09:40:53Z</time>
      </trkpt>
      <trkpt lat="43.38493" lon="-0.64388">
        <ele>150.583618</ele>
        <time>2013-05-14T09:41:04Z</time>
      </trkpt>
      <trkpt lat="43.38461" lon="-0.64348">
        <ele>148.18042</ele>
        <time>2013-05-14T09:41:11Z</time>
      </trkpt>
      <trkpt lat="43.3843" lon="-0.64322">
        <ele>145.7771</ele>
        <time>2013-05-14T09:41:18Z</time>
      </trkpt>
      <trkpt lat="43.384" lon="-0.64299">
        <ele>140.489868</ele>
        <time>2013-05-14T09:41:24Z</time>
      </trkpt>
      <trkpt lat="43.38393" lon="-0.64293">
        <ele>139.528442</ele>
        <time>2013-05-14T09:41:25Z</time>
      </trkpt>
      <trkpt lat="43.38373" lon="-0.64226">
        <ele>138.086548</ele>
        <time>2013-05-14T09:41:32Z</time>
      </trkpt>
      <trkpt lat="43.38368" lon="-0.64114">
        <ele>133.760498</ele>
        <time>2013-05-14T09:41:44Z</time>
      </trkpt>
      <trkpt lat="43.38366" lon="-0.64099">
        <ele>133.760498</ele>
        <time>2013-05-14T09:41:46Z</time>
      </trkpt>
      <trkpt lat="43.38358" lon="-0.64075">
        <ele>133.279907</ele>
        <time>2013-05-14T09:41:50Z</time>
      </trkpt>
      <trkpt lat="43.38338" lon="-0.64039">
        <ele>133.279907</ele>
        <time>2013-05-14T09:41:57Z</time>
      </trkpt>
      <trkpt lat="43.38318" lon="-0.63992">
        <ele>132.318604</ele>
        <time>2013-05-14T09:42:06Z</time>
      </trkpt>
      <trkpt lat="43.38268" lon="-0.63898">
        <ele>128.473389</ele>
        <time>2013-05-14T09:42:21Z</time>
      </trkpt>
      <trkpt lat="43.38264" lon="-0.63892">
        <ele>128.473389</ele>
        <time>2013-05-14T09:42:22Z</time>
      </trkpt>
      <trkpt lat="43.38249" lon="-0.63869">
        <ele>127.031372</ele>
        <time>2013-05-14T09:42:30Z</time>
      </trkpt>
      <trkpt lat="43.38247" lon="-0.63866">
        <ele>126.550659</ele>
        <time>2013-05-14T09:42:31Z</time>
      </trkpt>
      <trkpt lat="43.38245" lon="-0.63842">
        <ele>126.550659</ele>
        <time>2013-05-14T09:42:36Z</time>
      </trkpt>
      <trkpt lat="43.38247" lon="-0.63822">
        <ele>126.069946</ele>
        <time>2013-05-14T09:42:39Z</time>
      </trkpt>
      <trkpt lat="43.38229" lon="-0.63735">
        <ele>124.147339</ele>
        <time>2013-05-14T09:42:53Z</time>
      </trkpt>
      <trkpt lat="43.38215" lon="-0.63705">
        <ele>123.186157</ele>
        <time>2013-05-14T09:42:58Z</time>
      </trkpt>
      <trkpt lat="43.38189" lon="-0.63674">
        <ele>118.860107</ele>
        <time>2013-05-14T09:43:04Z</time>
      </trkpt>
      <trkpt lat="43.38178" lon="-0.63664">
        <ele>117.898804</ele>
        <time>2013-05-14T09:43:06Z</time>
      </trkpt>
      <trkpt lat="43.38173" lon="-0.63633">
        <ele>114.53418</ele>
        <time>2013-05-14T09:43:13Z</time>
      </trkpt>
      <trkpt lat="43.38202" lon="-0.63618">
        <ele>113.572998</ele>
        <time>2013-05-14T09:43:19Z</time>
      </trkpt>
      <trkpt lat="43.38246" lon="-0.63604">
        <ele>111.650269</ele>
        <time>2013-05-14T09:43:27Z</time>
      </trkpt>
      <trkpt lat="43.38267" lon="-0.63583">
        <ele>109.727661</ele>
        <time>2013-05-14T09:43:36Z</time>
      </trkpt>
      <trkpt lat="43.38272" lon="-0.63569">
        <ele>110.208252</ele>
        <time>2013-05-14T09:43:44Z</time>
      </trkpt>
      <trkpt lat="43.38294" lon="-0.63555">
        <ele>110.208252</ele>
        <time>2013-05-14T09:43:53Z</time>
      </trkpt>
      <trkpt lat="43.38297" lon="-0.63533">
        <ele>110.688843</ele>
        <time>2013-05-14T09:43:58Z</time>
      </trkpt>
      <trkpt lat="43.38332" lon="-0.6347">
        <ele>110.688843</ele>
        <time>2013-05-14T09:44:13Z</time>
      </trkpt>
      <trkpt lat="43.38361" lon="-0.63443">
        <ele>110.208252</ele>
        <time>2013-05-14T09:44:21Z</time>
      </trkpt>
      <trkpt lat="43.38405" lon="-0.63378">
        <ele>109.727661</ele>
        <time>2013-05-14T09:44:37Z</time>
      </trkpt>
      <trkpt lat="43.38436" lon="-0.63323">
        <ele>110.208252</ele>
        <time>2013-05-14T09:44:49Z</time>
      </trkpt>
      <trkpt lat="43.38452" lon="-0.63295">
        <ele>110.688843</ele>
        <time>2013-05-14T09:44:55Z</time>
      </trkpt>
      <trkpt lat="43.38464" lon="-0.63272">
        <ele>111.169556</ele>
        <time>2013-05-14T09:45:00Z</time>
      </trkpt>
      <trkpt lat="43.38507" lon="-0.63195">
        <ele>111.169556</ele>
        <time>2013-05-14T09:45:16Z</time>
      </trkpt>
      <trkpt lat="43.38515" lon="-0.6318">
        <ele>110.688843</ele>
        <time>2013-05-14T09:45:19Z</time>
      </trkpt>
      <trkpt lat="43.38536" lon="-0.63111">
        <ele>111.650269</ele>
        <time>2013-05-14T09:45:32Z</time>
      </trkpt>
      <trkpt lat="43.38565" lon="-0.63012">
        <ele>111.169556</ele>
        <time>2013-05-14T09:45:49Z</time>
      </trkpt>
      <trkpt lat="43.38573" lon="-0.62982">
        <ele>111.169556</ele>
        <time>2013-05-14T09:45:54Z</time>
      </trkpt>
      <trkpt lat="43.38592" lon="-0.62924">
        <ele>111.169556</ele>
        <time>2013-05-14T09:46:05Z</time>
      </trkpt>
      <trkpt lat="43.38594" lon="-0.62918">
        <ele>110.688843</ele>
        <time>2013-05-14T09:46:06Z</time>
      </trkpt>
      <trkpt lat="43.38599" lon="-0.62894">
        <ele>110.688843</ele>
        <time>2013-05-14T09:46:10Z</time>
      </trkpt>
      <trkpt lat="43.38626" lon="-0.62804">
        <ele>110.688843</ele>
        <time>2013-05-14T09:46:25Z</time>
      </trkpt>
      <trkpt lat="43.38629" lon="-0.62785">
        <ele>110.688843</ele>
        <time>2013-05-14T09:46:28Z</time>
      </trkpt>
      <trkpt lat="43.38628" lon="-0.62747">
        <ele>110.688843</ele>
        <time>2013-05-14T09:46:34Z</time>
      </trkpt>
      <trkpt lat="43.3864" lon="-0.6265">
        <ele>110.688843</ele>
        <time>2013-05-14T09:46:50Z</time>
      </trkpt>
      <trkpt lat="43.38645" lon="-0.62613">
        <ele>110.688843</ele>
        <time>2013-05-14T09:46:56Z</time>
      </trkpt>
      <trkpt lat="43.38646" lon="-0.62595">
        <ele>110.688843</ele>
        <time>2013-05-14T09:46:59Z</time>
      </trkpt>
      <trkpt lat="43.38657" lon="-0.62501">
        <ele>111.169556</ele>
        <time>2013-05-14T09:47:15Z</time>
      </trkpt>
      <trkpt lat="43.3866" lon="-0.62469">
        <ele>110.688843</ele>
        <time>2013-05-14T09:47:20Z</time>
      </trkpt>
      <trkpt lat="43.38676" lon="-0.62351">
        <ele>111.169556</ele>
        <time>2013-05-14T09:47:39Z</time>
      </trkpt>
      <trkpt lat="43.38695" lon="-0.62264">
        <ele>111.169556</ele>
        <time>2013-05-14T09:47:56Z</time>
      </trkpt>
      <trkpt lat="43.38704" lon="-0.62234">
        <ele>111.169556</ele>
        <time>2013-05-14T09:48:02Z</time>
      </trkpt>
      <trkpt lat="43.38717" lon="-0.62118">
        <ele>112.611572</ele>
        <time>2013-05-14T09:48:22Z</time>
      </trkpt>
      <trkpt lat="43.3872" lon="-0.62088">
        <ele>112.611572</ele>
        <time>2013-05-14T09:48:27Z</time>
      </trkpt>
      <trkpt lat="43.38716" lon="-0.62029">
        <ele>112.611572</ele>
        <time>2013-05-14T09:48:37Z</time>
      </trkpt>
      <trkpt lat="43.38735" lon="-0.61911">
        <ele>111.169556</ele>
        <time>2013-05-14T09:48:55Z</time>
      </trkpt>
      <trkpt lat="43.38745" lon="-0.61884">
        <ele>111.169556</ele>
        <time>2013-05-14T09:48:59Z</time>
      </trkpt>
      <trkpt lat="43.38791" lon="-0.61801">
        <ele>109.727661</ele>
        <time>2013-05-14T09:49:14Z</time>
      </trkpt>
      <trkpt lat="43.38844" lon="-0.61706">
        <ele>109.727661</ele>
        <time>2013-05-14T09:49:32Z</time>
      </trkpt>
      <trkpt lat="43.38863" lon="-0.6169">
        <ele>110.208252</ele>
        <time>2013-05-14T09:49:37Z</time>
      </trkpt>
      <trkpt lat="43.38887" lon="-0.61676">
        <ele>110.208252</ele>
        <time>2013-05-14T09:49:44Z</time>
      </trkpt>
      <trkpt lat="43.38901" lon="-0.61652">
        <ele>109.727661</ele>
        <time>2013-05-14T09:49:49Z</time>
      </trkpt>
      <trkpt lat="43.38913" lon="-0.61621">
        <ele>109.246948</ele>
        <time>2013-05-14T09:49:56Z</time>
      </trkpt>
      <trkpt lat="43.38894" lon="-0.61605">
        <ele>108.766235</ele>
        <time>2013-05-14T09:50:03Z</time>
      </trkpt>
      <trkpt lat="43.38855" lon="-0.61536">
        <ele>109.727661</ele>
        <time>2013-05-14T09:50:17Z</time>
      </trkpt>
      <trkpt lat="43.38842" lon="-0.61514">
        <ele>110.208252</ele>
        <time>2013-05-14T09:50:22Z</time>
      </trkpt>
      <trkpt lat="43.38854" lon="-0.6148">
        <ele>109.727661</ele>
        <time>2013-05-14T09:50:30Z</time>
      </trkpt>
      <trkpt lat="43.38856" lon="-0.61434">
        <ele>110.688843</ele>
        <time>2013-05-14T09:50:38Z</time>
      </trkpt>
      <trkpt lat="43.38863" lon="-0.61409">
        <ele>111.169556</ele>
        <time>2013-05-14T09:50:43Z</time>
      </trkpt>
      <trkpt lat="43.38919" lon="-0.61321">
        <ele>111.650269</ele>
        <time>2013-05-14T09:51:03Z</time>
      </trkpt>
      <trkpt lat="43.38969" lon="-0.61244">
        <ele>112.130981</ele>
        <time>2013-05-14T09:51:20Z</time>
      </trkpt>
      <trkpt lat="43.38974" lon="-0.61234">
        <ele>112.130981</ele>
        <time>2013-05-14T09:51:22Z</time>
      </trkpt>
      <trkpt lat="43.38983" lon="-0.61212">
        <ele>112.611572</ele>
        <time>2013-05-14T09:51:26Z</time>
      </trkpt>
      <trkpt lat="43.38982" lon="-0.61158">
        <ele>112.130981</ele>
        <time>2013-05-14T09:51:34Z</time>
      </trkpt>
      <trkpt lat="43.3897" lon="-0.61044">
        <ele>113.572998</ele>
        <time>2013-05-14T09:51:52Z</time>
      </trkpt>
      <trkpt lat="43.3897" lon="-0.60979">
        <ele>113.092285</ele>
        <time>2013-05-14T09:52:06Z</time>
      </trkpt>
      <trkpt lat="43.38991" lon="-0.60826">
        <ele>112.611572</ele>
        <time>2013-05-14T09:52:30Z</time>
      </trkpt>
      <trkpt lat="43.39011" lon="-0.60669">
        <ele>113.572998</ele>
        <time>2013-05-14T09:52:54Z</time>
      </trkpt>
      <trkpt lat="43.39023" lon="-0.60541">
        <ele>113.572998</ele>
        <time>2013-05-14T09:53:14Z</time>
      </trkpt>
      <trkpt lat="43.3905" lon="-0.60419">
        <ele>114.053589</ele>
        <time>2013-05-14T09:53:34Z</time>
      </trkpt>
      <trkpt lat="43.39087" lon="-0.60291">
        <ele>114.053589</ele>
        <time>2013-05-14T09:53:55Z</time>
      </trkpt>
      <trkpt lat="43.39124" lon="-0.60126">
        <ele>114.053589</ele>
        <time>2013-05-14T09:54:21Z</time>
      </trkpt>
      <trkpt lat="43.39123" lon="-0.60099">
        <ele>113.572998</ele>
        <time>2013-05-14T09:54:25Z</time>
      </trkpt>
      <trkpt lat="43.39108" lon="-0.60044">
        <ele>114.053589</ele>
        <time>2013-05-14T09:54:34Z</time>
      </trkpt>
      <trkpt lat="43.39084" lon="-0.5999">
        <ele>113.572998</ele>
        <time>2013-05-14T09:54:44Z</time>
      </trkpt>
      <trkpt lat="43.39048" lon="-0.59875">
        <ele>114.053589</ele>
        <time>2013-05-14T09:55:04Z</time>
      </trkpt>
      <trkpt lat="43.39032" lon="-0.59775">
        <ele>113.092285</ele>
        <time>2013-05-14T09:55:22Z</time>
      </trkpt>
      <trkpt lat="43.39038" lon="-0.59765">
        <ele>112.130981</ele>
        <time>2013-05-14T09:55:36Z</time>
      </trkpt>
      <trkpt lat="43.39039" lon="-0.59769">
        <ele>111.650269</ele>
        <time>2013-05-14T09:56:14Z</time>
      </trkpt>
      <trkpt lat="43.39038" lon="-0.5977">
        <ele>112.130981</ele>
        <time>2013-05-14T09:57:02Z</time>
      </trkpt>
      <trkpt lat="43.39037" lon="-0.59773">
        <ele>111.169556</ele>
        <time>2013-05-14T09:57:10Z</time>
      </trkpt>
      <trkpt lat="43.39061" lon="-0.598">
        <ele>112.611572</ele>
        <time>2013-05-14T09:57:22Z</time>
      </trkpt>
      <trkpt lat="43.39085" lon="-0.59823">
        <ele>111.650269</ele>
        <time>2013-05-14T09:57:29Z</time>
      </trkpt>
      <trkpt lat="43.39125" lon="-0.59804">
        <ele>111.169556</ele>
        <time>2013-05-14T09:57:40Z</time>
      </trkpt>
      <trkpt lat="43.39133" lon="-0.5979">
        <ele>111.650269</ele>
        <time>2013-05-14T09:57:43Z</time>
      </trkpt>
      <trkpt lat="43.39173" lon="-0.59774">
        <ele>110.688843</ele>
        <time>2013-05-14T09:57:53Z</time>
      </trkpt>
      <trkpt lat="43.39203" lon="-0.59781">
        <ele>110.208252</ele>
        <time>2013-05-14T09:58:00Z</time>
      </trkpt>
      <trkpt lat="43.3926" lon="-0.59745">
        <ele>109.727661</ele>
        <time>2013-05-14T09:58:14Z</time>
      </trkpt>
      <trkpt lat="43.39263" lon="-0.5974">
        <ele>109.727661</ele>
        <time>2013-05-14T09:58:15Z</time>
      </trkpt>
      <trkpt lat="43.39274" lon="-0.59701">
        <ele>110.208252</ele>
        <time>2013-05-14T09:58:22Z</time>
      </trkpt>
      <trkpt lat="43.39279" lon="-0.59665">
        <ele>110.208252</ele>
        <time>2013-05-14T09:58:28Z</time>
      </trkpt>
      <trkpt lat="43.39286" lon="-0.59644">
        <ele>110.208252</ele>
        <time>2013-05-14T09:58:32Z</time>
      </trkpt>
      <trkpt lat="43.39336" lon="-0.5959">
        <ele>110.688843</ele>
        <time>2013-05-14T09:58:47Z</time>
      </trkpt>
      <trkpt lat="43.39344" lon="-0.59585">
        <ele>110.208252</ele>
        <time>2013-05-14T09:58:49Z</time>
      </trkpt>
      <trkpt lat="43.3938" lon="-0.59544">
        <ele>110.208252</ele>
        <time>2013-05-14T09:59:00Z</time>
      </trkpt>
      <trkpt lat="43.3938" lon="-0.59533">
        <ele>110.208252</ele>
        <time>2013-05-14T09:59:02Z</time>
      </trkpt>
      <trkpt lat="43.39352" lon="-0.59422">
        <ele>111.650269</ele>
        <time>2013-05-14T09:59:22Z</time>
      </trkpt>
      <trkpt lat="43.39328" lon="-0.59336">
        <ele>111.650269</ele>
        <time>2013-05-14T09:59:40Z</time>
      </trkpt>
      <trkpt lat="43.39349" lon="-0.5931">
        <ele>109.727661</ele>
        <time>2013-05-14T09:59:50Z</time>
      </trkpt>
      <trkpt lat="43.39385" lon="-0.59272">
        <ele>109.727661</ele>
        <time>2013-05-14T10:00:04Z</time>
      </trkpt>
      <trkpt lat="43.39439" lon="-0.59279">
        <ele>109.246948</ele>
        <time>2013-05-14T10:00:20Z</time>
      </trkpt>
      <trkpt lat="43.39461" lon="-0.5932">
        <ele>109.246948</ele>
        <time>2013-05-14T10:00:32Z</time>
      </trkpt>
      <trkpt lat="43.39471" lon="-0.59369">
        <ele>108.285645</ele>
        <time>2013-05-14T10:00:43Z</time>
      </trkpt>
      <trkpt lat="43.39472" lon="-0.59451">
        <ele>108.285645</ele>
        <time>2013-05-14T10:00:58Z</time>
      </trkpt>
      <trkpt lat="43.39473" lon="-0.59501">
        <ele>108.766235</ele>
        <time>2013-05-14T10:01:09Z</time>
      </trkpt>
      <trkpt lat="43.39474" lon="-0.59513">
        <ele>107.805054</ele>
        <time>2013-05-14T10:01:12Z</time>
      </trkpt>
      <trkpt lat="43.3947" lon="-0.59526">
        <ele>108.285645</ele>
        <time>2013-05-14T10:01:16Z</time>
      </trkpt>
      <trkpt lat="43.39436" lon="-0.59559">
        <ele>107.805054</ele>
        <time>2013-05-14T10:01:30Z</time>
      </trkpt>
      <trkpt lat="43.39399" lon="-0.59552">
        <ele>108.285645</ele>
        <time>2013-05-14T10:01:42Z</time>
      </trkpt>
      <trkpt lat="43.39373" lon="-0.59559">
        <ele>109.727661</ele>
        <time>2013-05-14T10:01:58Z</time>
      </trkpt>
      <trkpt lat="43.39378" lon="-0.59585">
        <ele>110.208252</ele>
        <time>2013-05-14T10:02:07Z</time>
      </trkpt>
      <trkpt lat="43.39384" lon="-0.59678">
        <ele>110.688843</ele>
        <time>2013-05-14T10:02:24Z</time>
      </trkpt>
      <trkpt lat="43.39388" lon="-0.59801">
        <ele>110.208252</ele>
        <time>2013-05-14T10:02:45Z</time>
      </trkpt>
      <trkpt lat="43.39414" lon="-0.59897">
        <ele>109.727661</ele>
        <time>2013-05-14T10:03:02Z</time>
      </trkpt>
      <trkpt lat="43.39471" lon="-0.59974">
        <ele>109.727661</ele>
        <time>2013-05-14T10:03:20Z</time>
      </trkpt>
      <trkpt lat="43.39524" lon="-0.6004">
        <ele>108.766235</ele>
        <time>2013-05-14T10:03:36Z</time>
      </trkpt>
      <trkpt lat="43.39564" lon="-0.60097">
        <ele>108.766235</ele>
        <time>2013-05-14T10:03:50Z</time>
      </trkpt>
      <trkpt lat="43.39612" lon="-0.6014">
        <ele>110.208252</ele>
        <time>2013-05-14T10:04:05Z</time>
      </trkpt>
      <trkpt lat="43.3965" lon="-0.60185">
        <ele>110.688843</ele>
        <time>2013-05-14T10:04:16Z</time>
      </trkpt>
      <trkpt lat="43.39661" lon="-0.60195">
        <ele>109.727661</ele>
        <time>2013-05-14T10:04:19Z</time>
      </trkpt>
      <trkpt lat="43.39669" lon="-0.602">
        <ele>110.208252</ele>
        <time>2013-05-14T10:04:21Z</time>
      </trkpt>
      <trkpt lat="43.39702" lon="-0.60234">
        <ele>109.246948</ele>
        <time>2013-05-14T10:04:31Z</time>
      </trkpt>
      <trkpt lat="43.39727" lon="-0.60289">
        <ele>109.246948</ele>
        <time>2013-05-14T10:04:43Z</time>
      </trkpt>
      <trkpt lat="43.39764" lon="-0.60313">
        <ele>109.246948</ele>
        <time>2013-05-14T10:04:54Z</time>
      </trkpt>
      <trkpt lat="43.3982" lon="-0.60348">
        <ele>108.285645</ele>
        <time>2013-05-14T10:05:09Z</time>
      </trkpt>
      <trkpt lat="43.39846" lon="-0.60419">
        <ele>108.766235</ele>
        <time>2013-05-14T10:05:24Z</time>
      </trkpt>
      <trkpt lat="43.39849" lon="-0.60446">
        <ele>108.766235</ele>
        <time>2013-05-14T10:05:29Z</time>
      </trkpt>
      <trkpt lat="43.39843" lon="-0.60508">
        <ele>107.805054</ele>
        <time>2013-05-14T10:05:40Z</time>
      </trkpt>
      <trkpt lat="43.39838" lon="-0.60537">
        <ele>108.285645</ele>
        <time>2013-05-14T10:05:46Z</time>
      </trkpt>
      <trkpt lat="43.39801" lon="-0.60583">
        <ele>108.285645</ele>
        <time>2013-05-14T10:05:59Z</time>
      </trkpt>
      <trkpt lat="43.39793" lon="-0.60623">
        <ele>108.285645</ele>
        <time>2013-05-14T10:06:08Z</time>
      </trkpt>
      <trkpt lat="43.39792" lon="-0.60628">
        <ele>108.285645</ele>
        <time>2013-05-14T10:06:09Z</time>
      </trkpt>
      <trkpt lat="43.39759" lon="-0.6064">
        <ele>109.246948</ele>
        <time>2013-05-14T10:06:18Z</time>
      </trkpt>
      <trkpt lat="43.39751" lon="-0.60651">
        <ele>109.246948</ele>
        <time>2013-05-14T10:06:21Z</time>
      </trkpt>
      <trkpt lat="43.39743" lon="-0.60665">
        <ele>108.766235</ele>
        <time>2013-05-14T10:06:24Z</time>
      </trkpt>
      <trkpt lat="43.3973" lon="-0.6069">
        <ele>109.246948</ele>
        <time>2013-05-14T10:06:29Z</time>
      </trkpt>
      <trkpt lat="43.39717" lon="-0.60709">
        <ele>109.246948</ele>
        <time>2013-05-14T10:06:33Z</time>
      </trkpt>
      <trkpt lat="43.39676" lon="-0.60754">
        <ele>110.688843</ele>
        <time>2013-05-14T10:06:48Z</time>
      </trkpt>
      <trkpt lat="43.3967" lon="-0.60756">
        <ele>111.650269</ele>
        <time>2013-05-14T10:06:52Z</time>
      </trkpt>
      <trkpt lat="43.3963" lon="-0.60714">
        <ele>112.611572</ele>
        <time>2013-05-14T10:07:06Z</time>
      </trkpt>
      <trkpt lat="43.39565" lon="-0.6063">
        <ele>113.572998</ele>
        <time>2013-05-14T10:07:26Z</time>
      </trkpt>
      <trkpt lat="43.39484" lon="-0.60541">
        <ele>114.053589</ele>
        <time>2013-05-14T10:07:48Z</time>
      </trkpt>
      <trkpt lat="43.39404" lon="-0.6048">
        <ele>115.014893</ele>
        <time>2013-05-14T10:08:07Z</time>
      </trkpt>
      <trkpt lat="43.39315" lon="-0.60409">
        <ele>115.014893</ele>
        <time>2013-05-14T10:08:29Z</time>
      </trkpt>
      <trkpt lat="43.39243" lon="-0.60332">
        <ele>115.976196</ele>
        <time>2013-05-14T10:08:48Z</time>
      </trkpt>
      <trkpt lat="43.39175" lon="-0.60214">
        <ele>115.495605</ele>
        <time>2013-05-14T10:09:11Z</time>
      </trkpt>
      <trkpt lat="43.39131" lon="-0.60124">
        <ele>114.53418</ele>
        <time>2013-05-14T10:09:28Z</time>
      </trkpt>
      <trkpt lat="43.39097" lon="-0.60021">
        <ele>115.014893</ele>
        <time>2013-05-14T10:09:45Z</time>
      </trkpt>
      <trkpt lat="43.39057" lon="-0.59911">
        <ele>115.014893</ele>
        <time>2013-05-14T10:10:03Z</time>
      </trkpt>
      <trkpt lat="43.39046" lon="-0.59861">
        <ele>115.976196</ele>
        <time>2013-05-14T10:10:11Z</time>
      </trkpt>
      <trkpt lat="43.3903" lon="-0.59786">
        <ele>115.014893</ele>
        <time>2013-05-14T10:10:23Z</time>
      </trkpt>
      <trkpt lat="43.39018" lon="-0.59765">
        <ele>114.53418</ele>
        <time>2013-05-14T10:10:27Z</time>
      </trkpt>
      <trkpt lat="43.38998" lon="-0.59744">
        <ele>115.014893</ele>
        <time>2013-05-14T10:10:32Z</time>
      </trkpt>
      <trkpt lat="43.38978" lon="-0.59733">
        <ele>114.53418</ele>
        <time>2013-05-14T10:10:36Z</time>
      </trkpt>
      <trkpt lat="43.38918" lon="-0.59672">
        <ele>115.976196</ele>
        <time>2013-05-14T10:10:52Z</time>
      </trkpt>
      <trkpt lat="43.38885" lon="-0.59576">
        <ele>115.976196</ele>
        <time>2013-05-14T10:11:08Z</time>
      </trkpt>
      <trkpt lat="43.38839" lon="-0.59503">
        <ele>115.976196</ele>
        <time>2013-05-14T10:11:23Z</time>
      </trkpt>
      <trkpt lat="43.38752" lon="-0.59442">
        <ele>117.898804</ele>
        <time>2013-05-14T10:11:43Z</time>
      </trkpt>
      <trkpt lat="43.38681" lon="-0.59407">
        <ele>116.9375</ele>
        <time>2013-05-14T10:11:58Z</time>
      </trkpt>
      <trkpt lat="43.38629" lon="-0.59318">
        <ele>118.379395</ele>
        <time>2013-05-14T10:12:15Z</time>
      </trkpt>
      <trkpt lat="43.38566" lon="-0.59226">
        <ele>117.898804</ele>
        <time>2013-05-14T10:12:34Z</time>
      </trkpt>
      <trkpt lat="43.38523" lon="-0.59188">
        <ele>117.898804</ele>
        <time>2013-05-14T10:12:46Z</time>
      </trkpt>
      <trkpt lat="43.38524" lon="-0.59147">
        <ele>117.418213</ele>
        <time>2013-05-14T10:12:56Z</time>
      </trkpt>
      <trkpt lat="43.38523" lon="-0.59033">
        <ele>118.379395</ele>
        <time>2013-05-14T10:13:14Z</time>
      </trkpt>
      <trkpt lat="43.38522" lon="-0.59026">
        <ele>118.379395</ele>
        <time>2013-05-14T10:13:15Z</time>
      </trkpt>
      <trkpt lat="43.38509" lon="-0.58889">
        <ele>118.379395</ele>
        <time>2013-05-14T10:13:35Z</time>
      </trkpt>
      <trkpt lat="43.38501" lon="-0.58773">
        <ele>119.34082</ele>
        <time>2013-05-14T10:13:53Z</time>
      </trkpt>
      <trkpt lat="43.38503" lon="-0.58755">
        <ele>119.34082</ele>
        <time>2013-05-14T10:13:56Z</time>
      </trkpt>
      <trkpt lat="43.38509" lon="-0.58732">
        <ele>120.302124</ele>
        <time>2013-05-14T10:14:01Z</time>
      </trkpt>
      <trkpt lat="43.38492" lon="-0.58732">
        <ele>121.26355</ele>
        <time>2013-05-14T10:14:08Z</time>
      </trkpt>
      <trkpt lat="43.38451" lon="-0.58779">
        <ele>121.26355</ele>
        <time>2013-05-14T10:14:20Z</time>
      </trkpt>
      <trkpt lat="43.38429" lon="-0.58787">
        <ele>121.744141</ele>
        <time>2013-05-14T10:14:25Z</time>
      </trkpt>
      <trkpt lat="43.3841" lon="-0.58787">
        <ele>120.782837</ele>
        <time>2013-05-14T10:14:29Z</time>
      </trkpt>
      <trkpt lat="43.38395" lon="-0.58782">
        <ele>120.782837</ele>
        <time>2013-05-14T10:14:32Z</time>
      </trkpt>
      <trkpt lat="43.38349" lon="-0.58735">
        <ele>120.302124</ele>
        <time>2013-05-14T10:14:44Z</time>
      </trkpt>
      <trkpt lat="43.38285" lon="-0.58645">
        <ele>120.782837</ele>
        <time>2013-05-14T10:15:03Z</time>
      </trkpt>
      <trkpt lat="43.38187" lon="-0.58514">
        <ele>121.744141</ele>
        <time>2013-05-14T10:15:30Z</time>
      </trkpt>
      <trkpt lat="43.38164" lon="-0.58488">
        <ele>121.26355</ele>
        <time>2013-05-14T10:15:36Z</time>
      </trkpt>
      <trkpt lat="43.38145" lon="-0.58466">
        <ele>121.26355</ele>
        <time>2013-05-14T10:15:41Z</time>
      </trkpt>
      <trkpt lat="43.38062" lon="-0.58371">
        <ele>121.744141</ele>
        <time>2013-05-14T10:16:03Z</time>
      </trkpt>
      <trkpt lat="43.37975" lon="-0.58331">
        <ele>121.26355</ele>
        <time>2013-05-14T10:16:22Z</time>
      </trkpt>
      <trkpt lat="43.37936" lon="-0.58264">
        <ele>121.26355</ele>
        <time>2013-05-14T10:16:35Z</time>
      </trkpt>
      <trkpt lat="43.37898" lon="-0.58151">
        <ele>121.744141</ele>
        <time>2013-05-14T10:16:54Z</time>
      </trkpt>
      <trkpt lat="43.37866" lon="-0.58056">
        <ele>121.744141</ele>
        <time>2013-05-14T10:17:11Z</time>
      </trkpt>
      <trkpt lat="43.37821" lon="-0.57918">
        <ele>121.744141</ele>
        <time>2013-05-14T10:17:34Z</time>
      </trkpt>
      <trkpt lat="43.37777" lon="-0.57787">
        <ele>121.744141</ele>
        <time>2013-05-14T10:17:55Z</time>
      </trkpt>
      <trkpt lat="43.37728" lon="-0.57663">
        <ele>122.224731</ele>
        <time>2013-05-14T10:18:15Z</time>
      </trkpt>
      <trkpt lat="43.37687" lon="-0.57594">
        <ele>122.705444</ele>
        <time>2013-05-14T10:18:28Z</time>
      </trkpt>
      <trkpt lat="43.37618" lon="-0.57481">
        <ele>122.705444</ele>
        <time>2013-05-14T10:18:50Z</time>
      </trkpt>
      <trkpt lat="43.37535" lon="-0.57344">
        <ele>122.224731</ele>
        <time>2013-05-14T10:19:17Z</time>
      </trkpt>
      <trkpt lat="43.37463" lon="-0.57232">
        <ele>122.224731</ele>
        <time>2013-05-14T10:19:40Z</time>
      </trkpt>
      <trkpt lat="43.37369" lon="-0.57131">
        <ele>122.705444</ele>
        <time>2013-05-14T10:20:04Z</time>
      </trkpt>
      <trkpt lat="43.37333" lon="-0.57091">
        <ele>122.224731</ele>
        <time>2013-05-14T10:20:13Z</time>
      </trkpt>
      <trkpt lat="43.3732" lon="-0.5707">
        <ele>122.705444</ele>
        <time>2013-05-14T10:20:17Z</time>
      </trkpt>
      <trkpt lat="43.37308" lon="-0.5704">
        <ele>122.705444</ele>
        <time>2013-05-14T10:20:22Z</time>
      </trkpt>
      <trkpt lat="43.37283" lon="-0.56993">
        <ele>123.186157</ele>
        <time>2013-05-14T10:20:33Z</time>
      </trkpt>
      <trkpt lat="43.37284" lon="-0.56982">
        <ele>123.186157</ele>
        <time>2013-05-14T10:20:35Z</time>
      </trkpt>
      <trkpt lat="43.37265" lon="-0.56899">
        <ele>123.666748</ele>
        <time>2013-05-14T10:20:49Z</time>
      </trkpt>
      <trkpt lat="43.37243" lon="-0.56829">
        <ele>124.628052</ele>
        <time>2013-05-14T10:21:02Z</time>
      </trkpt>
      <trkpt lat="43.3723" lon="-0.56763">
        <ele>123.666748</ele>
        <time>2013-05-14T10:21:17Z</time>
      </trkpt>
      <trkpt lat="43.37243" lon="-0.56755">
        <ele>122.705444</ele>
        <time>2013-05-14T10:21:22Z</time>
      </trkpt>
      <trkpt lat="43.37261" lon="-0.56759">
        <ele>121.744141</ele>
        <time>2013-05-14T10:21:25Z</time>
      </trkpt>
      <trkpt lat="43.37294" lon="-0.5675">
        <ele>121.26355</ele>
        <time>2013-05-14T10:21:31Z</time>
      </trkpt>
      <trkpt lat="43.37365" lon="-0.56695">
        <ele>121.26355</ele>
        <time>2013-05-14T10:21:48Z</time>
      </trkpt>
      <trkpt lat="43.37387" lon="-0.56668">
        <ele>122.224731</ele>
        <time>2013-05-14T10:21:55Z</time>
      </trkpt>
      <trkpt lat="43.37418" lon="-0.56628">
        <ele>122.224731</ele>
        <time>2013-05-14T10:22:06Z</time>
      </trkpt>
      <trkpt lat="43.37422" lon="-0.56553">
        <ele>122.224731</ele>
        <time>2013-05-14T10:22:20Z</time>
      </trkpt>
      <trkpt lat="43.37425" lon="-0.56537">
        <ele>122.705444</ele>
        <time>2013-05-14T10:22:23Z</time>
      </trkpt>
      <trkpt lat="43.37423" lon="-0.56474">
        <ele>122.224731</ele>
        <time>2013-05-14T10:22:34Z</time>
      </trkpt>
      <trkpt lat="43.37417" lon="-0.56433">
        <ele>123.186157</ele>
        <time>2013-05-14T10:22:41Z</time>
      </trkpt>
      <trkpt lat="43.37415" lon="-0.56417">
        <ele>122.705444</ele>
        <time>2013-05-14T10:22:44Z</time>
      </trkpt>
      <trkpt lat="43.37406" lon="-0.5637">
        <ele>122.224731</ele>
        <time>2013-05-14T10:22:52Z</time>
      </trkpt>
      <trkpt lat="43.37409" lon="-0.56332">
        <ele>121.26355</ele>
        <time>2013-05-14T10:22:58Z</time>
      </trkpt>
      <trkpt lat="43.37424" lon="-0.56283">
        <ele>122.224731</ele>
        <time>2013-05-14T10:23:08Z</time>
      </trkpt>
      <trkpt lat="43.37429" lon="-0.56274">
        <ele>122.224731</ele>
        <time>2013-05-14T10:23:12Z</time>
      </trkpt>
      <trkpt lat="43.37421" lon="-0.56228">
        <ele>122.705444</ele>
        <time>2013-05-14T10:23:23Z</time>
      </trkpt>
      <trkpt lat="43.37411" lon="-0.56208">
        <ele>121.744141</ele>
        <time>2013-05-14T10:23:36Z</time>
      </trkpt>
      <trkpt lat="43.37411" lon="-0.56207">
        <ele>122.224731</ele>
        <time>2013-05-14T10:24:10Z</time>
      </trkpt>
      <trkpt lat="43.37411" lon="-0.56207">
        <ele>122.224731</ele>
        <time>2013-05-14T10:24:30Z</time>
      </trkpt>
      <trkpt lat="43.37397" lon="-0.56172">
        <ele>121.744141</ele>
        <time>2013-05-14T10:24:41Z</time>
      </trkpt>
      <trkpt lat="43.37388" lon="-0.56155">
        <ele>123.186157</ele>
        <time>2013-05-14T10:24:45Z</time>
      </trkpt>
      <trkpt lat="43.37353" lon="-0.56105">
        <ele>123.186157</ele>
        <time>2013-05-14T10:24:57Z</time>
      </trkpt>
      <trkpt lat="43.3729" lon="-0.55986">
        <ele>124.147339</ele>
        <time>2013-05-14T10:25:19Z</time>
      </trkpt>
      <trkpt lat="43.37232" lon="-0.55904">
        <ele>124.147339</ele>
        <time>2013-05-14T10:25:36Z</time>
      </trkpt>
      <trkpt lat="43.37214" lon="-0.55882">
        <ele>124.147339</ele>
        <time>2013-05-14T10:25:41Z</time>
      </trkpt>
      <trkpt lat="43.37202" lon="-0.55841">
        <ele>124.628052</ele>
        <time>2013-05-14T10:25:48Z</time>
      </trkpt>
      <trkpt lat="43.37203" lon="-0.55771">
        <ele>124.628052</ele>
        <time>2013-05-14T10:25:59Z</time>
      </trkpt>
      <trkpt lat="43.37197" lon="-0.55748">
        <ele>125.108765</ele>
        <time>2013-05-14T10:26:03Z</time>
      </trkpt>
      <trkpt lat="43.37186" lon="-0.55729">
        <ele>125.589355</ele>
        <time>2013-05-14T10:26:07Z</time>
      </trkpt>
      <trkpt lat="43.3718" lon="-0.5572">
        <ele>125.108765</ele>
        <time>2013-05-14T10:26:09Z</time>
      </trkpt>
      <trkpt lat="43.37164" lon="-0.5571">
        <ele>125.108765</ele>
        <time>2013-05-14T10:26:13Z</time>
      </trkpt>
      <trkpt lat="43.37079" lon="-0.55656">
        <ele>126.069946</ele>
        <time>2013-05-14T10:26:33Z</time>
      </trkpt>
      <trkpt lat="43.37009" lon="-0.55601">
        <ele>126.069946</ele>
        <time>2013-05-14T10:26:50Z</time>
      </trkpt>
      <trkpt lat="43.36918" lon="-0.55551">
        <ele>127.031372</ele>
        <time>2013-05-14T10:27:11Z</time>
      </trkpt>
      <trkpt lat="43.36909" lon="-0.55545">
        <ele>126.550659</ele>
        <time>2013-05-14T10:27:13Z</time>
      </trkpt>
      <trkpt lat="43.369" lon="-0.55542">
        <ele>126.550659</ele>
        <time>2013-05-14T10:27:15Z</time>
      </trkpt>
      <trkpt lat="43.36882" lon="-0.55541">
        <ele>126.550659</ele>
        <time>2013-05-14T10:27:19Z</time>
      </trkpt>
      <trkpt lat="43.36873" lon="-0.55544">
        <ele>126.550659</ele>
        <time>2013-05-14T10:27:21Z</time>
      </trkpt>
      <trkpt lat="43.36821" lon="-0.55592">
        <ele>126.550659</ele>
        <time>2013-05-14T10:27:35Z</time>
      </trkpt>
      <trkpt lat="43.36777" lon="-0.55645">
        <ele>127.031372</ele>
        <time>2013-05-14T10:27:49Z</time>
      </trkpt>
      <trkpt lat="43.36731" lon="-0.55665">
        <ele>125.589355</ele>
        <time>2013-05-14T10:28:01Z</time>
      </trkpt>
      <trkpt lat="43.36723" lon="-0.55669">
        <ele>127.511963</ele>
        <time>2013-05-14T10:28:03Z</time>
      </trkpt>
      <trkpt lat="43.36693" lon="-0.55677">
        <ele>127.992554</ele>
        <time>2013-05-14T10:28:10Z</time>
      </trkpt>
      <trkpt lat="43.36663" lon="-0.55659">
        <ele>128.954102</ele>
        <time>2013-05-14T10:28:18Z</time>
      </trkpt>
      <trkpt lat="43.36611" lon="-0.55568">
        <ele>129.915283</ele>
        <time>2013-05-14T10:28:38Z</time>
      </trkpt>
      <trkpt lat="43.36582" lon="-0.55508">
        <ele>130.395996</ele>
        <time>2013-05-14T10:28:50Z</time>
      </trkpt>
      <trkpt lat="43.36542" lon="-0.55429">
        <ele>130.395996</ele>
        <time>2013-05-14T10:29:06Z</time>
      </trkpt>
      <trkpt lat="43.36482" lon="-0.55318">
        <ele>129.915283</ele>
        <time>2013-05-14T10:29:28Z</time>
      </trkpt>
      <trkpt lat="43.36426" lon="-0.55262">
        <ele>130.876709</ele>
        <time>2013-05-14T10:29:44Z</time>
      </trkpt>
      <trkpt lat="43.36357" lon="-0.55179">
        <ele>130.395996</ele>
        <time>2013-05-14T10:30:06Z</time>
      </trkpt>
      <trkpt lat="43.36298" lon="-0.55108">
        <ele>130.876709</ele>
        <time>2013-05-14T10:30:24Z</time>
      </trkpt>
      <trkpt lat="43.36266" lon="-0.55046">
        <ele>130.876709</ele>
        <time>2013-05-14T10:30:38Z</time>
      </trkpt>
      <trkpt lat="43.36259" lon="-0.54967">
        <ele>129.915283</ele>
        <time>2013-05-14T10:30:52Z</time>
      </trkpt>
      <trkpt lat="43.36261" lon="-0.5494">
        <ele>130.395996</ele>
        <time>2013-05-14T10:30:57Z</time>
      </trkpt>
      <trkpt lat="43.36261" lon="-0.54912">
        <ele>130.395996</ele>
        <time>2013-05-14T10:31:02Z</time>
      </trkpt>
      <trkpt lat="43.36258" lon="-0.54874">
        <ele>129.915283</ele>
        <time>2013-05-14T10:31:09Z</time>
      </trkpt>
      <trkpt lat="43.36224" lon="-0.54791">
        <ele>131.837891</ele>
        <time>2013-05-14T10:31:26Z</time>
      </trkpt>
      <trkpt lat="43.3621" lon="-0.54727">
        <ele>130.876709</ele>
        <time>2013-05-14T10:31:37Z</time>
      </trkpt>
      <trkpt lat="43.36207" lon="-0.54697">
        <ele>130.876709</ele>
        <time>2013-05-14T10:31:42Z</time>
      </trkpt>
      <trkpt lat="43.36207" lon="-0.54615">
        <ele>132.799316</ele>
        <time>2013-05-14T10:31:57Z</time>
      </trkpt>
      <trkpt lat="43.36202" lon="-0.54551">
        <ele>132.799316</ele>
        <time>2013-05-14T10:32:09Z</time>
      </trkpt>
      <trkpt lat="43.36199" lon="-0.54528">
        <ele>131.837891</ele>
        <time>2013-05-14T10:32:13Z</time>
      </trkpt>
      <trkpt lat="43.36181" lon="-0.54495">
        <ele>131.837891</ele>
        <time>2013-05-14T10:32:20Z</time>
      </trkpt>
      <trkpt lat="43.36173" lon="-0.5449">
        <ele>131.3573</ele>
        <time>2013-05-14T10:32:22Z</time>
      </trkpt>
      <trkpt lat="43.3612" lon="-0.54414">
        <ele>132.799316</ele>
        <time>2013-05-14T10:32:39Z</time>
      </trkpt>
      <trkpt lat="43.36057" lon="-0.54314">
        <ele>133.760498</ele>
        <time>2013-05-14T10:32:59Z</time>
      </trkpt>
      <trkpt lat="43.36045" lon="-0.54297">
        <ele>132.799316</ele>
        <time>2013-05-14T10:33:03Z</time>
      </trkpt>
      <trkpt lat="43.36024" lon="-0.54287">
        <ele>132.799316</ele>
        <time>2013-05-14T10:33:12Z</time>
      </trkpt>
      <trkpt lat="43.36022" lon="-0.54297">
        <ele>132.799316</ele>
        <time>2013-05-14T10:33:14Z</time>
      </trkpt>
      <trkpt lat="43.36019" lon="-0.54425">
        <ele>132.799316</ele>
        <time>2013-05-14T10:33:34Z</time>
      </trkpt>
      <trkpt lat="43.36013" lon="-0.54554">
        <ele>133.760498</ele>
        <time>2013-05-14T10:33:54Z</time>
      </trkpt>
      <trkpt lat="43.36005" lon="-0.5474">
        <ele>134.241211</ele>
        <time>2013-05-14T10:34:22Z</time>
      </trkpt>
      <trkpt lat="43.36001" lon="-0.54843">
        <ele>133.760498</ele>
        <time>2013-05-14T10:34:38Z</time>
      </trkpt>
      <trkpt lat="43.35994" lon="-0.55009">
        <ele>133.760498</ele>
        <time>2013-05-14T10:35:01Z</time>
      </trkpt>
      <trkpt lat="43.3599" lon="-0.55095">
        <ele>132.799316</ele>
        <time>2013-05-14T10:35:13Z</time>
      </trkpt>
      <trkpt lat="43.3599" lon="-0.55213">
        <ele>132.799316</ele>
        <time>2013-05-14T10:35:30Z</time>
      </trkpt>
      <trkpt lat="43.36012" lon="-0.55265">
        <ele>133.279907</ele>
        <time>2013-05-14T10:35:39Z</time>
      </trkpt>
      <trkpt lat="43.3601" lon="-0.55292">
        <ele>131.837891</ele>
        <time>2013-05-14T10:35:44Z</time>
      </trkpt>
      <trkpt lat="43.35998" lon="-0.55328">
        <ele>133.279907</ele>
        <time>2013-05-14T10:35:50Z</time>
      </trkpt>
      <trkpt lat="43.35968" lon="-0.55375">
        <ele>132.799316</ele>
        <time>2013-05-14T10:36:00Z</time>
      </trkpt>
      <trkpt lat="43.35941" lon="-0.55399">
        <ele>131.837891</ele>
        <time>2013-05-14T10:36:08Z</time>
      </trkpt>
      <trkpt lat="43.35941" lon="-0.55406">
        <ele>131.837891</ele>
        <time>2013-05-14T10:36:09Z</time>
      </trkpt>
      <trkpt lat="43.35943" lon="-0.55433">
        <ele>131.837891</ele>
        <time>2013-05-14T10:36:13Z</time>
      </trkpt>
      <trkpt lat="43.35937" lon="-0.5548">
        <ele>133.279907</ele>
        <time>2013-05-14T10:36:20Z</time>
      </trkpt>
      <trkpt lat="43.35934" lon="-0.55493">
        <ele>131.837891</ele>
        <time>2013-05-14T10:36:22Z</time>
      </trkpt>
      <trkpt lat="43.35912" lon="-0.55626">
        <ele>130.395996</ele>
        <time>2013-05-14T10:36:42Z</time>
      </trkpt>
      <trkpt lat="43.35889" lon="-0.55757">
        <ele>131.837891</ele>
        <time>2013-05-14T10:37:02Z</time>
      </trkpt>
      <trkpt lat="43.35863" lon="-0.559">
        <ele>131.3573</ele>
        <time>2013-05-14T10:37:23Z</time>
      </trkpt>
      <trkpt lat="43.35837" lon="-0.5604">
        <ele>130.876709</ele>
        <time>2013-05-14T10:37:43Z</time>
      </trkpt>
      <trkpt lat="43.35834" lon="-0.56054">
        <ele>132.318604</ele>
        <time>2013-05-14T10:37:45Z</time>
      </trkpt>
      <trkpt lat="43.35827" lon="-0.56094">
        <ele>131.837891</ele>
        <time>2013-05-14T10:37:51Z</time>
      </trkpt>
      <trkpt lat="43.35815" lon="-0.56097">
        <ele>130.876709</ele>
        <time>2013-05-14T10:37:55Z</time>
      </trkpt>
      <trkpt lat="43.3579" lon="-0.56068">
        <ele>131.837891</ele>
        <time>2013-05-14T10:38:02Z</time>
      </trkpt>
      <trkpt lat="43.35772" lon="-0.56063">
        <ele>131.837891</ele>
        <time>2013-05-14T10:38:06Z</time>
      </trkpt>
      <trkpt lat="43.35729" lon="-0.56072">
        <ele>132.318604</ele>
        <time>2013-05-14T10:38:15Z</time>
      </trkpt>
      <trkpt lat="43.35713" lon="-0.56065">
        <ele>132.318604</ele>
        <time>2013-05-14T10:38:19Z</time>
      </trkpt>
      <trkpt lat="43.35679" lon="-0.56036">
        <ele>134.241211</ele>
        <time>2013-05-14T10:38:28Z</time>
      </trkpt>
      <trkpt lat="43.35647" lon="-0.56028">
        <ele>133.760498</ele>
        <time>2013-05-14T10:38:35Z</time>
      </trkpt>
      <trkpt lat="43.35629" lon="-0.56016">
        <ele>133.279907</ele>
        <time>2013-05-14T10:38:39Z</time>
      </trkpt>
      <trkpt lat="43.35622" lon="-0.56008">
        <ele>132.799316</ele>
        <time>2013-05-14T10:38:41Z</time>
      </trkpt>
      <trkpt lat="43.35607" lon="-0.5598">
        <ele>134.241211</ele>
        <time>2013-05-14T10:38:46Z</time>
      </trkpt>
      <trkpt lat="43.35577" lon="-0.55872">
        <ele>133.279907</ele>
        <time>2013-05-14T10:39:03Z</time>
      </trkpt>
      <trkpt lat="43.35571" lon="-0.55854">
        <ele>133.279907</ele>
        <time>2013-05-14T10:39:06Z</time>
      </trkpt>
      <trkpt lat="43.35508" lon="-0.55746">
        <ele>134.241211</ele>
        <time>2013-05-14T10:39:27Z</time>
      </trkpt>
      <trkpt lat="43.35456" lon="-0.55666">
        <ele>136.644653</ele>
        <time>2013-05-14T10:39:45Z</time>
      </trkpt>
      <trkpt lat="43.3544" lon="-0.55642">
        <ele>135.202515</ele>
        <time>2013-05-14T10:39:50Z</time>
      </trkpt>
      <trkpt lat="43.35429" lon="-0.55617">
        <ele>135.202515</ele>
        <time>2013-05-14T10:39:54Z</time>
      </trkpt>
      <trkpt lat="43.35413" lon="-0.55562">
        <ele>135.683105</ele>
        <time>2013-05-14T10:40:03Z</time>
      </trkpt>
      <trkpt lat="43.35376" lon="-0.55524">
        <ele>135.202515</ele>
        <time>2013-05-14T10:40:13Z</time>
      </trkpt>
      <trkpt lat="43.35328" lon="-0.55507">
        <ele>134.241211</ele>
        <time>2013-05-14T10:40:21Z</time>
      </trkpt>
      <trkpt lat="43.35305" lon="-0.55482">
        <ele>134.241211</ele>
        <time>2013-05-14T10:40:26Z</time>
      </trkpt>
      <trkpt lat="43.35254" lon="-0.55398">
        <ele>133.760498</ele>
        <time>2013-05-14T10:40:42Z</time>
      </trkpt>
      <trkpt lat="43.35247" lon="-0.55388">
        <ele>134.241211</ele>
        <time>2013-05-14T10:40:44Z</time>
      </trkpt>
      <trkpt lat="43.35219" lon="-0.55378">
        <ele>133.760498</ele>
        <time>2013-05-14T10:40:50Z</time>
      </trkpt>
      <trkpt lat="43.35209" lon="-0.5538">
        <ele>133.279907</ele>
        <time>2013-05-14T10:40:52Z</time>
      </trkpt>
      <trkpt lat="43.35174" lon="-0.55379">
        <ele>131.837891</ele>
        <time>2013-05-14T10:40:59Z</time>
      </trkpt>
      <trkpt lat="43.35096" lon="-0.55307">
        <ele>132.318604</ele>
        <time>2013-05-14T10:41:18Z</time>
      </trkpt>
      <trkpt lat="43.35061" lon="-0.55274">
        <ele>133.279907</ele>
        <time>2013-05-14T10:41:27Z</time>
      </trkpt>
      <trkpt lat="43.35043" lon="-0.55285">
        <ele>133.279907</ele>
        <time>2013-05-14T10:41:32Z</time>
      </trkpt>
      <trkpt lat="43.3498" lon="-0.55446">
        <ele>131.3573</ele>
        <time>2013-05-14T10:41:58Z</time>
      </trkpt>
      <trkpt lat="43.34978" lon="-0.55453">
        <ele>131.3573</ele>
        <time>2013-05-14T10:41:59Z</time>
      </trkpt>
      <trkpt lat="43.34978" lon="-0.55479">
        <ele>131.837891</ele>
        <time>2013-05-14T10:42:03Z</time>
      </trkpt>
      <trkpt lat="43.35002" lon="-0.55562">
        <ele>131.837891</ele>
        <time>2013-05-14T10:42:16Z</time>
      </trkpt>
      <trkpt lat="43.34996" lon="-0.55598">
        <ele>131.3573</ele>
        <time>2013-05-14T10:42:22Z</time>
      </trkpt>
      <trkpt lat="43.34967" lon="-0.55643">
        <ele>131.3573</ele>
        <time>2013-05-14T10:42:31Z</time>
      </trkpt>
      <trkpt lat="43.34964" lon="-0.55666">
        <ele>131.3573</ele>
        <time>2013-05-14T10:42:35Z</time>
      </trkpt>
      <trkpt lat="43.34997" lon="-0.55761">
        <ele>131.3573</ele>
        <time>2013-05-14T10:42:51Z</time>
      </trkpt>
      <trkpt lat="43.35041" lon="-0.55888">
        <ele>130.876709</ele>
        <time>2013-05-14T10:43:11Z</time>
      </trkpt>
      <trkpt lat="43.35077" lon="-0.55993">
        <ele>131.3573</ele>
        <time>2013-05-14T10:43:28Z</time>
      </trkpt>
      <trkpt lat="43.35117" lon="-0.56112">
        <ele>130.395996</ele>
        <time>2013-05-14T10:43:47Z</time>
      </trkpt>
      <trkpt lat="43.35119" lon="-0.56118">
        <ele>130.876709</ele>
        <time>2013-05-14T10:43:48Z</time>
      </trkpt>
      <trkpt lat="43.35119" lon="-0.56234">
        <ele>130.395996</ele>
        <time>2013-05-14T10:44:05Z</time>
      </trkpt>
      <trkpt lat="43.35114" lon="-0.56383">
        <ele>132.318604</ele>
        <time>2013-05-14T10:44:26Z</time>
      </trkpt>
      <trkpt lat="43.35122" lon="-0.56405">
        <ele>130.876709</ele>
        <time>2013-05-14T10:44:30Z</time>
      </trkpt>
      <trkpt lat="43.3514" lon="-0.5645">
        <ele>131.837891</ele>
        <time>2013-05-14T10:44:39Z</time>
      </trkpt>
      <trkpt lat="43.35199" lon="-0.56469">
        <ele>131.837891</ele>
        <time>2013-05-14T10:44:52Z</time>
      </trkpt>
      <trkpt lat="43.35303" lon="-0.5648">
        <ele>130.395996</ele>
        <time>2013-05-14T10:45:13Z</time>
      </trkpt>
      <trkpt lat="43.35403" lon="-0.56482">
        <ele>130.395996</ele>
        <time>2013-05-14T10:45:33Z</time>
      </trkpt>
      <trkpt lat="43.35485" lon="-0.56475">
        <ele>129.915283</ele>
        <time>2013-05-14T10:45:50Z</time>
      </trkpt>
      <trkpt lat="43.3557" lon="-0.56435">
        <ele>129.915283</ele>
        <time>2013-05-14T10:46:08Z</time>
      </trkpt>
      <trkpt lat="43.35662" lon="-0.56388">
        <ele>130.395996</ele>
        <time>2013-05-14T10:46:28Z</time>
      </trkpt>
      <trkpt lat="43.35707" lon="-0.56378">
        <ele>130.395996</ele>
        <time>2013-05-14T10:46:39Z</time>
      </trkpt>
      <trkpt lat="43.35765" lon="-0.56344">
        <ele>131.3573</ele>
        <time>2013-05-14T10:46:54Z</time>
      </trkpt>
      <trkpt lat="43.35788" lon="-0.56321">
        <ele>131.3573</ele>
        <time>2013-05-14T10:47:00Z</time>
      </trkpt>
      <trkpt lat="43.35803" lon="-0.5629">
        <ele>131.3573</ele>
        <time>2013-05-14T10:47:06Z</time>
      </trkpt>
      <trkpt lat="43.35838" lon="-0.56234">
        <ele>131.3573</ele>
        <time>2013-05-14T10:47:20Z</time>
      </trkpt>
      <trkpt lat="43.35849" lon="-0.56226">
        <ele>131.3573</ele>
        <time>2013-05-14T10:47:25Z</time>
      </trkpt>
      <trkpt lat="43.35852" lon="-0.56238">
        <ele>130.876709</ele>
        <time>2013-05-14T10:47:30Z</time>
      </trkpt>
      <trkpt lat="43.35834" lon="-0.56299">
        <ele>131.3573</ele>
        <time>2013-05-14T10:47:40Z</time>
      </trkpt>
      <trkpt lat="43.35827" lon="-0.56402">
        <ele>130.395996</ele>
        <time>2013-05-14T10:47:55Z</time>
      </trkpt>
      <trkpt lat="43.35827" lon="-0.56419">
        <ele>130.395996</ele>
        <time>2013-05-14T10:47:58Z</time>
      </trkpt>
      <trkpt lat="43.35813" lon="-0.5646">
        <ele>130.395996</ele>
        <time>2013-05-14T10:48:09Z</time>
      </trkpt>
      <trkpt lat="43.35811" lon="-0.5646">
        <ele>130.395996</ele>
        <time>2013-05-14T10:48:19Z</time>
      </trkpt>
      <trkpt lat="43.35811" lon="-0.56458">
        <ele>129.434692</ele>
        <time>2013-05-14T10:48:31Z</time>
      </trkpt>
      <trkpt lat="43.35812" lon="-0.56458">
        <ele>128.954102</ele>
        <time>2013-05-14T10:48:47Z</time>
      </trkpt>
    </trkseg>
  </trk>
</gpx>